<?xml version="1.0" encoding="UTF-8" standalone="no" ?>
<gpx xmlns="http://www.topografix.com/GPX/1/1" xmlns:xsi="http://www.w3.org/2001/XMLSchema-instance" xsi:schemaLocation="http://www.topografix.com/GPX/1/1 http://www.topografix.com/GPX/1/1/gpx.xsd" version="1.1" creator="VisuGPX - https://www.visugpx.com">
  <metadata>
    <name>SALAVAS-LABASTIDE DE VIRAC</name>
    <desc><![CDATA[SALAVAS-LABASTIDE DE VIRAC A/R]]></desc>
  </metadata>
  <wpt lat="44.38665" lon="4.37975">
    <ele>167.5</ele>
    <name><![CDATA[Track Recording Stopped]]></name>
    <desc><![CDATA[Recording stopped at 2h16' because the user stopped it after 9.40km (436m gain).]]></desc>
  </wpt>
  <trk>
    <name><![CDATA[Tracking android:3a5b8911c3f6800]]></name>
    <desc><![CDATA[Tracking recently started 29/07/2015 8:58]]></desc>
    <trkseg>
      <trkpt lat="44.3881" lon="4.38052">
        <ele>30</ele>
        <time>2015-07-29T07:01:25Z</time>
      </trkpt>
      <trkpt lat="44.38777" lon="4.37988">
        <ele>167.6</ele>
        <time>2015-07-29T07:01:31Z</time>
      </trkpt>
      <trkpt lat="44.38792" lon="4.37992">
        <ele>164.9</ele>
        <time>2015-07-29T07:01:47Z</time>
      </trkpt>
      <trkpt lat="44.38805" lon="4.37995">
        <ele>161.3</ele>
        <time>2015-07-29T07:01:56Z</time>
      </trkpt>
      <trkpt lat="44.38818" lon="4.37999">
        <ele>165.1</ele>
        <time>2015-07-29T07:02:08Z</time>
      </trkpt>
      <trkpt lat="44.38825" lon="4.38002">
        <ele>164.9</ele>
        <time>2015-07-29T07:02:14Z</time>
      </trkpt>
      <trkpt lat="44.38833" lon="4.38008">
        <ele>164.9</ele>
        <time>2015-07-29T07:02:21Z</time>
      </trkpt>
      <trkpt lat="44.3884" lon="4.38013">
        <ele>165.1</ele>
        <time>2015-07-29T07:02:27Z</time>
      </trkpt>
      <trkpt lat="44.38848" lon="4.3802">
        <ele>165.1</ele>
        <time>2015-07-29T07:02:34Z</time>
      </trkpt>
      <trkpt lat="44.38855" lon="4.38026">
        <ele>165.2</ele>
        <time>2015-07-29T07:02:40Z</time>
      </trkpt>
      <trkpt lat="44.38862" lon="4.38034">
        <ele>165.3</ele>
        <time>2015-07-29T07:02:48Z</time>
      </trkpt>
      <trkpt lat="44.38868" lon="4.38045">
        <ele>165.3</ele>
        <time>2015-07-29T07:02:55Z</time>
      </trkpt>
      <trkpt lat="44.38872" lon="4.38059">
        <ele>165</ele>
        <time>2015-07-29T07:03:08Z</time>
      </trkpt>
      <trkpt lat="44.38878" lon="4.38067">
        <ele>165.1</ele>
        <time>2015-07-29T07:03:16Z</time>
      </trkpt>
      <trkpt lat="44.38881" lon="4.38076">
        <ele>165</ele>
        <time>2015-07-29T07:03:22Z</time>
      </trkpt>
      <trkpt lat="44.38884" lon="4.38086">
        <ele>165.2</ele>
        <time>2015-07-29T07:03:29Z</time>
      </trkpt>
      <trkpt lat="44.38889" lon="4.38094">
        <ele>165.9</ele>
        <time>2015-07-29T07:03:38Z</time>
      </trkpt>
      <trkpt lat="44.38895" lon="4.38105">
        <ele>167.9</ele>
        <time>2015-07-29T07:03:50Z</time>
      </trkpt>
      <trkpt lat="44.38886" lon="4.38109">
        <ele>169.1</ele>
        <time>2015-07-29T07:04:01Z</time>
      </trkpt>
      <trkpt lat="44.38877" lon="4.38104">
        <ele>169.7</ele>
        <time>2015-07-29T07:04:08Z</time>
      </trkpt>
      <trkpt lat="44.38868" lon="4.38096">
        <ele>169.5</ele>
        <time>2015-07-29T07:04:15Z</time>
      </trkpt>
      <trkpt lat="44.38856" lon="4.38096">
        <ele>169.5</ele>
        <time>2015-07-29T07:04:35Z</time>
      </trkpt>
      <trkpt lat="44.38848" lon="4.38094">
        <ele>168.5</ele>
        <time>2015-07-29T07:04:46Z</time>
      </trkpt>
      <trkpt lat="44.38839" lon="4.38091">
        <ele>168.5</ele>
        <time>2015-07-29T07:04:52Z</time>
      </trkpt>
      <trkpt lat="44.38831" lon="4.38091">
        <ele>168.6</ele>
        <time>2015-07-29T07:04:57Z</time>
      </trkpt>
      <trkpt lat="44.38822" lon="4.38089">
        <ele>168.6</ele>
        <time>2015-07-29T07:05:06Z</time>
      </trkpt>
      <trkpt lat="44.38815" lon="4.38087">
        <ele>168.8</ele>
        <time>2015-07-29T07:05:11Z</time>
      </trkpt>
      <trkpt lat="44.38807" lon="4.38084">
        <ele>168.9</ele>
        <time>2015-07-29T07:05:17Z</time>
      </trkpt>
      <trkpt lat="44.388" lon="4.38082">
        <ele>169.1</ele>
        <time>2015-07-29T07:05:22Z</time>
      </trkpt>
      <trkpt lat="44.38791" lon="4.38081">
        <ele>168.9</ele>
        <time>2015-07-29T07:05:28Z</time>
      </trkpt>
      <trkpt lat="44.38783" lon="4.3808">
        <ele>168.6</ele>
        <time>2015-07-29T07:05:36Z</time>
      </trkpt>
      <trkpt lat="44.38776" lon="4.3808">
        <ele>168.5</ele>
        <time>2015-07-29T07:05:41Z</time>
      </trkpt>
      <trkpt lat="44.38768" lon="4.38078">
        <ele>168.4</ele>
        <time>2015-07-29T07:05:49Z</time>
      </trkpt>
      <trkpt lat="44.3876" lon="4.38074">
        <ele>168.3</ele>
        <time>2015-07-29T07:05:55Z</time>
      </trkpt>
      <trkpt lat="44.38752" lon="4.3807">
        <ele>168.3</ele>
        <time>2015-07-29T07:06:00Z</time>
      </trkpt>
      <trkpt lat="44.38742" lon="4.38063">
        <ele>167.9</ele>
        <time>2015-07-29T07:06:10Z</time>
      </trkpt>
      <trkpt lat="44.38734" lon="4.38059">
        <ele>167.6</ele>
        <time>2015-07-29T07:06:15Z</time>
      </trkpt>
      <trkpt lat="44.38728" lon="4.38054">
        <ele>167.5</ele>
        <time>2015-07-29T07:06:20Z</time>
      </trkpt>
      <trkpt lat="44.38722" lon="4.38051">
        <ele>167.4</ele>
        <time>2015-07-29T07:06:27Z</time>
      </trkpt>
      <trkpt lat="44.38714" lon="4.38047">
        <ele>167.5</ele>
        <time>2015-07-29T07:06:33Z</time>
      </trkpt>
      <trkpt lat="44.38706" lon="4.38043">
        <ele>167.7</ele>
        <time>2015-07-29T07:06:39Z</time>
      </trkpt>
      <trkpt lat="44.38698" lon="4.38039">
        <ele>168.1</ele>
        <time>2015-07-29T07:06:45Z</time>
      </trkpt>
      <trkpt lat="44.38691" lon="4.38034">
        <ele>168.2</ele>
        <time>2015-07-29T07:06:51Z</time>
      </trkpt>
      <trkpt lat="44.38683" lon="4.38031">
        <ele>168.7</ele>
        <time>2015-07-29T07:06:58Z</time>
      </trkpt>
      <trkpt lat="44.38676" lon="4.38029">
        <ele>168.7</ele>
        <time>2015-07-29T07:07:04Z</time>
      </trkpt>
      <trkpt lat="44.38669" lon="4.38023">
        <ele>168.7</ele>
        <time>2015-07-29T07:07:10Z</time>
      </trkpt>
      <trkpt lat="44.38662" lon="4.38016">
        <ele>168.8</ele>
        <time>2015-07-29T07:07:17Z</time>
      </trkpt>
      <trkpt lat="44.38656" lon="4.38009">
        <ele>169.2</ele>
        <time>2015-07-29T07:07:22Z</time>
      </trkpt>
      <trkpt lat="44.38649" lon="4.38003">
        <ele>169.4</ele>
        <time>2015-07-29T07:07:26Z</time>
      </trkpt>
      <trkpt lat="44.38641" lon="4.37995">
        <ele>169.5</ele>
        <time>2015-07-29T07:07:32Z</time>
      </trkpt>
      <trkpt lat="44.38636" lon="4.3799">
        <ele>169.9</ele>
        <time>2015-07-29T07:07:38Z</time>
      </trkpt>
      <trkpt lat="44.38631" lon="4.37985">
        <ele>170.1</ele>
        <time>2015-07-29T07:07:44Z</time>
      </trkpt>
      <trkpt lat="44.38625" lon="4.37979">
        <ele>170</ele>
        <time>2015-07-29T07:07:50Z</time>
      </trkpt>
      <trkpt lat="44.3862" lon="4.37973">
        <ele>170.4</ele>
        <time>2015-07-29T07:07:55Z</time>
      </trkpt>
      <trkpt lat="44.38616" lon="4.37968">
        <ele>170.7</ele>
        <time>2015-07-29T07:07:59Z</time>
      </trkpt>
      <trkpt lat="44.38611" lon="4.37963">
        <ele>171</ele>
        <time>2015-07-29T07:08:04Z</time>
      </trkpt>
      <trkpt lat="44.38605" lon="4.37957">
        <ele>171.3</ele>
        <time>2015-07-29T07:08:10Z</time>
      </trkpt>
      <trkpt lat="44.38599" lon="4.3795">
        <ele>171.1</ele>
        <time>2015-07-29T07:08:16Z</time>
      </trkpt>
      <trkpt lat="44.38594" lon="4.37945">
        <ele>171.4</ele>
        <time>2015-07-29T07:08:20Z</time>
      </trkpt>
      <trkpt lat="44.38588" lon="4.37939">
        <ele>171.4</ele>
        <time>2015-07-29T07:08:26Z</time>
      </trkpt>
      <trkpt lat="44.38583" lon="4.37933">
        <ele>171.4</ele>
        <time>2015-07-29T07:08:30Z</time>
      </trkpt>
      <trkpt lat="44.38576" lon="4.37924">
        <ele>171.1</ele>
        <time>2015-07-29T07:08:37Z</time>
      </trkpt>
      <trkpt lat="44.38571" lon="4.37915">
        <ele>170.7</ele>
        <time>2015-07-29T07:08:44Z</time>
      </trkpt>
      <trkpt lat="44.38566" lon="4.37906">
        <ele>170.6</ele>
        <time>2015-07-29T07:08:48Z</time>
      </trkpt>
      <trkpt lat="44.38563" lon="4.37899">
        <ele>170.7</ele>
        <time>2015-07-29T07:08:51Z</time>
      </trkpt>
      <trkpt lat="44.38558" lon="4.37891">
        <ele>171</ele>
        <time>2015-07-29T07:08:58Z</time>
      </trkpt>
      <trkpt lat="44.38553" lon="4.37886">
        <ele>171.3</ele>
        <time>2015-07-29T07:09:02Z</time>
      </trkpt>
      <trkpt lat="44.38548" lon="4.3788">
        <ele>171.6</ele>
        <time>2015-07-29T07:09:07Z</time>
      </trkpt>
      <trkpt lat="44.38544" lon="4.37873">
        <ele>171.6</ele>
        <time>2015-07-29T07:09:12Z</time>
      </trkpt>
      <trkpt lat="44.38539" lon="4.37865">
        <ele>171.2</ele>
        <time>2015-07-29T07:09:19Z</time>
      </trkpt>
      <trkpt lat="44.38533" lon="4.37856">
        <ele>170.9</ele>
        <time>2015-07-29T07:09:27Z</time>
      </trkpt>
      <trkpt lat="44.3853" lon="4.3785">
        <ele>170.7</ele>
        <time>2015-07-29T07:09:31Z</time>
      </trkpt>
      <trkpt lat="44.38526" lon="4.37841">
        <ele>170.5</ele>
        <time>2015-07-29T07:09:36Z</time>
      </trkpt>
      <trkpt lat="44.38519" lon="4.37829">
        <ele>170.2</ele>
        <time>2015-07-29T07:09:46Z</time>
      </trkpt>
      <trkpt lat="44.38516" lon="4.37821">
        <ele>170.2</ele>
        <time>2015-07-29T07:09:51Z</time>
      </trkpt>
      <trkpt lat="44.38514" lon="4.37815">
        <ele>170.1</ele>
        <time>2015-07-29T07:09:56Z</time>
      </trkpt>
      <trkpt lat="44.38509" lon="4.37806">
        <ele>170.4</ele>
        <time>2015-07-29T07:10:03Z</time>
      </trkpt>
      <trkpt lat="44.38504" lon="4.378">
        <ele>170.5</ele>
        <time>2015-07-29T07:10:08Z</time>
      </trkpt>
      <trkpt lat="44.38498" lon="4.37795">
        <ele>170.6</ele>
        <time>2015-07-29T07:10:13Z</time>
      </trkpt>
      <trkpt lat="44.38494" lon="4.37791">
        <ele>170.7</ele>
        <time>2015-07-29T07:10:18Z</time>
      </trkpt>
      <trkpt lat="44.38487" lon="4.37785">
        <ele>170.5</ele>
        <time>2015-07-29T07:10:25Z</time>
      </trkpt>
      <trkpt lat="44.3848" lon="4.37779">
        <ele>170.2</ele>
        <time>2015-07-29T07:10:31Z</time>
      </trkpt>
      <trkpt lat="44.38475" lon="4.37775">
        <ele>170</ele>
        <time>2015-07-29T07:10:35Z</time>
      </trkpt>
      <trkpt lat="44.38469" lon="4.37768">
        <ele>169.7</ele>
        <time>2015-07-29T07:10:40Z</time>
      </trkpt>
      <trkpt lat="44.38461" lon="4.37764">
        <ele>169.5</ele>
        <time>2015-07-29T07:10:46Z</time>
      </trkpt>
      <trkpt lat="44.38454" lon="4.3776">
        <ele>169.5</ele>
        <time>2015-07-29T07:10:54Z</time>
      </trkpt>
      <trkpt lat="44.38447" lon="4.37755">
        <ele>168.8</ele>
        <time>2015-07-29T07:11:01Z</time>
      </trkpt>
      <trkpt lat="44.38442" lon="4.37751">
        <ele>168.7</ele>
        <time>2015-07-29T07:11:06Z</time>
      </trkpt>
      <trkpt lat="44.38436" lon="4.37745">
        <ele>168.2</ele>
        <time>2015-07-29T07:11:14Z</time>
      </trkpt>
      <trkpt lat="44.3843" lon="4.37739">
        <ele>167.4</ele>
        <time>2015-07-29T07:11:20Z</time>
      </trkpt>
      <trkpt lat="44.38423" lon="4.37734">
        <ele>166.9</ele>
        <time>2015-07-29T07:11:25Z</time>
      </trkpt>
      <trkpt lat="44.38416" lon="4.3773">
        <ele>166.5</ele>
        <time>2015-07-29T07:11:30Z</time>
      </trkpt>
      <trkpt lat="44.38411" lon="4.37727">
        <ele>166.2</ele>
        <time>2015-07-29T07:11:33Z</time>
      </trkpt>
      <trkpt lat="44.38405" lon="4.37721">
        <ele>165.9</ele>
        <time>2015-07-29T07:11:39Z</time>
      </trkpt>
      <trkpt lat="44.38397" lon="4.37717">
        <ele>165.2</ele>
        <time>2015-07-29T07:11:48Z</time>
      </trkpt>
      <trkpt lat="44.38392" lon="4.3771">
        <ele>164.8</ele>
        <time>2015-07-29T07:11:54Z</time>
      </trkpt>
      <trkpt lat="44.38387" lon="4.37705">
        <ele>164</ele>
        <time>2015-07-29T07:12:00Z</time>
      </trkpt>
      <trkpt lat="44.3838" lon="4.377">
        <ele>163.5</ele>
        <time>2015-07-29T07:12:05Z</time>
      </trkpt>
      <trkpt lat="44.38373" lon="4.37695">
        <ele>163.3</ele>
        <time>2015-07-29T07:12:09Z</time>
      </trkpt>
      <trkpt lat="44.38366" lon="4.37691">
        <ele>162.8</ele>
        <time>2015-07-29T07:12:14Z</time>
      </trkpt>
      <trkpt lat="44.38359" lon="4.37686">
        <ele>161.9</ele>
        <time>2015-07-29T07:12:21Z</time>
      </trkpt>
      <trkpt lat="44.38352" lon="4.37681">
        <ele>161.2</ele>
        <time>2015-07-29T07:12:29Z</time>
      </trkpt>
      <trkpt lat="44.38345" lon="4.37671">
        <ele>161.8</ele>
        <time>2015-07-29T07:12:36Z</time>
      </trkpt>
      <trkpt lat="44.3834" lon="4.37664">
        <ele>161.8</ele>
        <time>2015-07-29T07:12:41Z</time>
      </trkpt>
      <trkpt lat="44.38333" lon="4.37658">
        <ele>161.4</ele>
        <time>2015-07-29T07:12:47Z</time>
      </trkpt>
      <trkpt lat="44.38324" lon="4.3765">
        <ele>161.2</ele>
        <time>2015-07-29T07:12:54Z</time>
      </trkpt>
      <trkpt lat="44.38321" lon="4.3764">
        <ele>161.2</ele>
        <time>2015-07-29T07:12:59Z</time>
      </trkpt>
      <trkpt lat="44.38318" lon="4.37631">
        <ele>161.4</ele>
        <time>2015-07-29T07:13:05Z</time>
      </trkpt>
      <trkpt lat="44.38316" lon="4.3762">
        <ele>161.3</ele>
        <time>2015-07-29T07:13:11Z</time>
      </trkpt>
      <trkpt lat="44.38311" lon="4.37611">
        <ele>161</ele>
        <time>2015-07-29T07:13:19Z</time>
      </trkpt>
      <trkpt lat="44.38307" lon="4.37602">
        <ele>161.1</ele>
        <time>2015-07-29T07:13:25Z</time>
      </trkpt>
      <trkpt lat="44.38302" lon="4.37593">
        <ele>161.4</ele>
        <time>2015-07-29T07:13:32Z</time>
      </trkpt>
      <trkpt lat="44.38298" lon="4.37582">
        <ele>161.8</ele>
        <time>2015-07-29T07:13:38Z</time>
      </trkpt>
      <trkpt lat="44.38295" lon="4.37576">
        <ele>161.9</ele>
        <time>2015-07-29T07:13:42Z</time>
      </trkpt>
      <trkpt lat="44.38291" lon="4.37567">
        <ele>161.9</ele>
        <time>2015-07-29T07:13:48Z</time>
      </trkpt>
      <trkpt lat="44.38287" lon="4.37557">
        <ele>162</ele>
        <time>2015-07-29T07:13:54Z</time>
      </trkpt>
      <trkpt lat="44.38283" lon="4.37547">
        <ele>161.5</ele>
        <time>2015-07-29T07:14:00Z</time>
      </trkpt>
      <trkpt lat="44.38279" lon="4.37539">
        <ele>160.7</ele>
        <time>2015-07-29T07:14:08Z</time>
      </trkpt>
      <trkpt lat="44.38271" lon="4.37536">
        <ele>160.4</ele>
        <time>2015-07-29T07:14:14Z</time>
      </trkpt>
      <trkpt lat="44.38262" lon="4.37536">
        <ele>160.2</ele>
        <time>2015-07-29T07:14:22Z</time>
      </trkpt>
      <trkpt lat="44.38255" lon="4.37532">
        <ele>160.2</ele>
        <time>2015-07-29T07:14:27Z</time>
      </trkpt>
      <trkpt lat="44.38248" lon="4.37527">
        <ele>160.2</ele>
        <time>2015-07-29T07:14:34Z</time>
      </trkpt>
      <trkpt lat="44.38241" lon="4.37519">
        <ele>159.9</ele>
        <time>2015-07-29T07:14:41Z</time>
      </trkpt>
      <trkpt lat="44.38235" lon="4.37515">
        <ele>159.2</ele>
        <time>2015-07-29T07:14:47Z</time>
      </trkpt>
      <trkpt lat="44.38227" lon="4.37511">
        <ele>158.4</ele>
        <time>2015-07-29T07:14:55Z</time>
      </trkpt>
      <trkpt lat="44.38221" lon="4.37503">
        <ele>158</ele>
        <time>2015-07-29T07:15:01Z</time>
      </trkpt>
      <trkpt lat="44.38211" lon="4.37497">
        <ele>157.6</ele>
        <time>2015-07-29T07:15:09Z</time>
      </trkpt>
      <trkpt lat="44.38202" lon="4.37488">
        <ele>157.7</ele>
        <time>2015-07-29T07:15:17Z</time>
      </trkpt>
      <trkpt lat="44.3819" lon="4.37481">
        <ele>156.3</ele>
        <time>2015-07-29T07:15:30Z</time>
      </trkpt>
      <trkpt lat="44.38179" lon="4.37479">
        <ele>155.7</ele>
        <time>2015-07-29T07:15:39Z</time>
      </trkpt>
      <trkpt lat="44.38169" lon="4.37484">
        <ele>156.3</ele>
        <time>2015-07-29T07:15:49Z</time>
      </trkpt>
      <trkpt lat="44.38161" lon="4.37487">
        <ele>157.1</ele>
        <time>2015-07-29T07:15:56Z</time>
      </trkpt>
      <trkpt lat="44.38154" lon="4.375">
        <ele>158.6</ele>
        <time>2015-07-29T07:16:08Z</time>
      </trkpt>
      <trkpt lat="44.38147" lon="4.37512">
        <ele>160.6</ele>
        <time>2015-07-29T07:16:17Z</time>
      </trkpt>
      <trkpt lat="44.38137" lon="4.3752">
        <ele>161.8</ele>
        <time>2015-07-29T07:16:26Z</time>
      </trkpt>
      <trkpt lat="44.38128" lon="4.3752">
        <ele>163</ele>
        <time>2015-07-29T07:16:32Z</time>
      </trkpt>
      <trkpt lat="44.3812" lon="4.37517">
        <ele>164.2</ele>
        <time>2015-07-29T07:16:39Z</time>
      </trkpt>
      <trkpt lat="44.38115" lon="4.37512">
        <ele>164.8</ele>
        <time>2015-07-29T07:16:43Z</time>
      </trkpt>
      <trkpt lat="44.38108" lon="4.37506">
        <ele>165.4</ele>
        <time>2015-07-29T07:16:49Z</time>
      </trkpt>
      <trkpt lat="44.38098" lon="4.37499">
        <ele>165.7</ele>
        <time>2015-07-29T07:16:56Z</time>
      </trkpt>
      <trkpt lat="44.3809" lon="4.37495">
        <ele>165.7</ele>
        <time>2015-07-29T07:17:03Z</time>
      </trkpt>
      <trkpt lat="44.38083" lon="4.3749">
        <ele>165.6</ele>
        <time>2015-07-29T07:17:09Z</time>
      </trkpt>
      <trkpt lat="44.38076" lon="4.37485">
        <ele>165.4</ele>
        <time>2015-07-29T07:17:17Z</time>
      </trkpt>
      <trkpt lat="44.38068" lon="4.37479">
        <ele>164.1</ele>
        <time>2015-07-29T07:17:26Z</time>
      </trkpt>
      <trkpt lat="44.38058" lon="4.37469">
        <ele>162.8</ele>
        <time>2015-07-29T07:17:34Z</time>
      </trkpt>
      <trkpt lat="44.38051" lon="4.37464">
        <ele>162.9</ele>
        <time>2015-07-29T07:17:39Z</time>
      </trkpt>
      <trkpt lat="44.38044" lon="4.3746">
        <ele>163.1</ele>
        <time>2015-07-29T07:17:44Z</time>
      </trkpt>
      <trkpt lat="44.38037" lon="4.37455">
        <ele>162.9</ele>
        <time>2015-07-29T07:17:50Z</time>
      </trkpt>
      <trkpt lat="44.38031" lon="4.3745">
        <ele>163.1</ele>
        <time>2015-07-29T07:17:56Z</time>
      </trkpt>
      <trkpt lat="44.38024" lon="4.37444">
        <ele>162.9</ele>
        <time>2015-07-29T07:18:02Z</time>
      </trkpt>
      <trkpt lat="44.38019" lon="4.3744">
        <ele>163</ele>
        <time>2015-07-29T07:18:06Z</time>
      </trkpt>
      <trkpt lat="44.38014" lon="4.37437">
        <ele>163.1</ele>
        <time>2015-07-29T07:18:11Z</time>
      </trkpt>
      <trkpt lat="44.38007" lon="4.37443">
        <ele>164.2</ele>
        <time>2015-07-29T07:18:21Z</time>
      </trkpt>
      <trkpt lat="44.38001" lon="4.3745">
        <ele>165.1</ele>
        <time>2015-07-29T07:18:27Z</time>
      </trkpt>
      <trkpt lat="44.37993" lon="4.37461">
        <ele>165.5</ele>
        <time>2015-07-29T07:18:38Z</time>
      </trkpt>
      <trkpt lat="44.37994" lon="4.37479">
        <ele>165</ele>
        <time>2015-07-29T07:18:46Z</time>
      </trkpt>
      <trkpt lat="44.37988" lon="4.37486">
        <ele>163.2</ele>
        <time>2015-07-29T07:18:54Z</time>
      </trkpt>
      <trkpt lat="44.37985" lon="4.375">
        <ele>159.9</ele>
        <time>2015-07-29T07:19:05Z</time>
      </trkpt>
      <trkpt lat="44.37988" lon="4.37518">
        <ele>158.1</ele>
        <time>2015-07-29T07:19:18Z</time>
      </trkpt>
      <trkpt lat="44.37986" lon="4.37535">
        <ele>157.3</ele>
        <time>2015-07-29T07:19:25Z</time>
      </trkpt>
      <trkpt lat="44.37977" lon="4.37544">
        <ele>157.5</ele>
        <time>2015-07-29T07:19:32Z</time>
      </trkpt>
      <trkpt lat="44.37967" lon="4.37549">
        <ele>157.1</ele>
        <time>2015-07-29T07:19:39Z</time>
      </trkpt>
      <trkpt lat="44.37958" lon="4.37549">
        <ele>156.4</ele>
        <time>2015-07-29T07:19:46Z</time>
      </trkpt>
      <trkpt lat="44.37947" lon="4.37554">
        <ele>154.7</ele>
        <time>2015-07-29T07:19:56Z</time>
      </trkpt>
      <trkpt lat="44.37939" lon="4.37565">
        <ele>154.2</ele>
        <time>2015-07-29T07:20:06Z</time>
      </trkpt>
      <trkpt lat="44.37933" lon="4.37578">
        <ele>153.9</ele>
        <time>2015-07-29T07:20:15Z</time>
      </trkpt>
      <trkpt lat="44.37925" lon="4.37587">
        <ele>154.2</ele>
        <time>2015-07-29T07:20:25Z</time>
      </trkpt>
      <trkpt lat="44.37914" lon="4.37604">
        <ele>155.5</ele>
        <time>2015-07-29T07:20:38Z</time>
      </trkpt>
      <trkpt lat="44.37907" lon="4.37619">
        <ele>156.1</ele>
        <time>2015-07-29T07:20:49Z</time>
      </trkpt>
      <trkpt lat="44.37894" lon="4.37627">
        <ele>156.2</ele>
        <time>2015-07-29T07:21:06Z</time>
      </trkpt>
      <trkpt lat="44.37885" lon="4.37629">
        <ele>156.6</ele>
        <time>2015-07-29T07:21:12Z</time>
      </trkpt>
      <trkpt lat="44.37877" lon="4.37625">
        <ele>156.6</ele>
        <time>2015-07-29T07:21:17Z</time>
      </trkpt>
      <trkpt lat="44.37867" lon="4.37614">
        <ele>156.4</ele>
        <time>2015-07-29T07:21:29Z</time>
      </trkpt>
      <trkpt lat="44.37857" lon="4.37606">
        <ele>155.7</ele>
        <time>2015-07-29T07:21:39Z</time>
      </trkpt>
      <trkpt lat="44.37846" lon="4.37601">
        <ele>156.5</ele>
        <time>2015-07-29T07:21:54Z</time>
      </trkpt>
      <trkpt lat="44.37839" lon="4.37596">
        <ele>156.4</ele>
        <time>2015-07-29T07:21:58Z</time>
      </trkpt>
      <trkpt lat="44.37833" lon="4.3759">
        <ele>156.4</ele>
        <time>2015-07-29T07:22:02Z</time>
      </trkpt>
      <trkpt lat="44.37827" lon="4.37583">
        <ele>156.9</ele>
        <time>2015-07-29T07:22:09Z</time>
      </trkpt>
      <trkpt lat="44.37822" lon="4.37575">
        <ele>157.2</ele>
        <time>2015-07-29T07:22:16Z</time>
      </trkpt>
      <trkpt lat="44.37817" lon="4.37564">
        <ele>157.8</ele>
        <time>2015-07-29T07:22:26Z</time>
      </trkpt>
      <trkpt lat="44.37813" lon="4.37554">
        <ele>157.8</ele>
        <time>2015-07-29T07:22:31Z</time>
      </trkpt>
      <trkpt lat="44.37806" lon="4.37541">
        <ele>158.5</ele>
        <time>2015-07-29T07:22:40Z</time>
      </trkpt>
      <trkpt lat="44.37798" lon="4.37538">
        <ele>158.2</ele>
        <time>2015-07-29T07:22:46Z</time>
      </trkpt>
      <trkpt lat="44.3779" lon="4.37535">
        <ele>158.4</ele>
        <time>2015-07-29T07:22:52Z</time>
      </trkpt>
      <trkpt lat="44.37783" lon="4.37532">
        <ele>159.1</ele>
        <time>2015-07-29T07:22:59Z</time>
      </trkpt>
      <trkpt lat="44.37772" lon="4.37528">
        <ele>160.7</ele>
        <time>2015-07-29T07:23:11Z</time>
      </trkpt>
      <trkpt lat="44.37766" lon="4.37522">
        <ele>161.5</ele>
        <time>2015-07-29T07:23:16Z</time>
      </trkpt>
      <trkpt lat="44.37757" lon="4.3752">
        <ele>162.3</ele>
        <time>2015-07-29T07:23:24Z</time>
      </trkpt>
      <trkpt lat="44.37747" lon="4.37513">
        <ele>162.6</ele>
        <time>2015-07-29T07:23:33Z</time>
      </trkpt>
      <trkpt lat="44.37735" lon="4.37509">
        <ele>163.1</ele>
        <time>2015-07-29T07:23:44Z</time>
      </trkpt>
      <trkpt lat="44.37724" lon="4.37506">
        <ele>163.4</ele>
        <time>2015-07-29T07:23:52Z</time>
      </trkpt>
      <trkpt lat="44.37717" lon="4.37505">
        <ele>163.6</ele>
        <time>2015-07-29T07:23:58Z</time>
      </trkpt>
      <trkpt lat="44.37709" lon="4.37502">
        <ele>163.7</ele>
        <time>2015-07-29T07:24:04Z</time>
      </trkpt>
      <trkpt lat="44.37701" lon="4.37499">
        <ele>163.8</ele>
        <time>2015-07-29T07:24:10Z</time>
      </trkpt>
      <trkpt lat="44.37693" lon="4.37495">
        <ele>163.4</ele>
        <time>2015-07-29T07:24:18Z</time>
      </trkpt>
      <trkpt lat="44.37681" lon="4.37489">
        <ele>164.2</ele>
        <time>2015-07-29T07:24:26Z</time>
      </trkpt>
      <trkpt lat="44.37674" lon="4.37488">
        <ele>165.5</ele>
        <time>2015-07-29T07:24:32Z</time>
      </trkpt>
      <trkpt lat="44.37667" lon="4.37493">
        <ele>168.4</ele>
        <time>2015-07-29T07:25:00Z</time>
      </trkpt>
      <trkpt lat="44.37658" lon="4.37493">
        <ele>168.7</ele>
        <time>2015-07-29T07:25:07Z</time>
      </trkpt>
      <trkpt lat="44.37647" lon="4.37493">
        <ele>169.2</ele>
        <time>2015-07-29T07:25:18Z</time>
      </trkpt>
      <trkpt lat="44.37638" lon="4.37497">
        <ele>167.9</ele>
        <time>2015-07-29T07:25:32Z</time>
      </trkpt>
      <trkpt lat="44.37628" lon="4.37495">
        <ele>166.9</ele>
        <time>2015-07-29T07:25:50Z</time>
      </trkpt>
      <trkpt lat="44.3762" lon="4.37491">
        <ele>166.6</ele>
        <time>2015-07-29T07:26:06Z</time>
      </trkpt>
      <trkpt lat="44.37609" lon="4.37493">
        <ele>166.4</ele>
        <time>2015-07-29T07:26:21Z</time>
      </trkpt>
      <trkpt lat="44.37597" lon="4.37488">
        <ele>166.8</ele>
        <time>2015-07-29T07:26:34Z</time>
      </trkpt>
      <trkpt lat="44.37585" lon="4.37487">
        <ele>166.6</ele>
        <time>2015-07-29T07:26:51Z</time>
      </trkpt>
      <trkpt lat="44.37575" lon="4.37492">
        <ele>167.5</ele>
        <time>2015-07-29T07:27:03Z</time>
      </trkpt>
      <trkpt lat="44.37564" lon="4.37489">
        <ele>168.7</ele>
        <time>2015-07-29T07:27:15Z</time>
      </trkpt>
      <trkpt lat="44.37554" lon="4.37481">
        <ele>170.1</ele>
        <time>2015-07-29T07:27:27Z</time>
      </trkpt>
      <trkpt lat="44.37541" lon="4.37472">
        <ele>171</ele>
        <time>2015-07-29T07:27:49Z</time>
      </trkpt>
      <trkpt lat="44.37528" lon="4.37465">
        <ele>172.9</ele>
        <time>2015-07-29T07:27:58Z</time>
      </trkpt>
      <trkpt lat="44.37516" lon="4.37464">
        <ele>174.3</ele>
        <time>2015-07-29T07:28:03Z</time>
      </trkpt>
      <trkpt lat="44.37505" lon="4.37462">
        <ele>176.6</ele>
        <time>2015-07-29T07:28:13Z</time>
      </trkpt>
      <trkpt lat="44.37497" lon="4.37458">
        <ele>177.2</ele>
        <time>2015-07-29T07:28:19Z</time>
      </trkpt>
      <trkpt lat="44.37491" lon="4.37455">
        <ele>179.8</ele>
        <time>2015-07-29T07:28:31Z</time>
      </trkpt>
      <trkpt lat="44.37487" lon="4.37446">
        <ele>180.2</ele>
        <time>2015-07-29T07:28:37Z</time>
      </trkpt>
      <trkpt lat="44.37483" lon="4.37435">
        <ele>181.6</ele>
        <time>2015-07-29T07:28:54Z</time>
      </trkpt>
      <trkpt lat="44.37486" lon="4.37448">
        <ele>185.2</ele>
        <time>2015-07-29T07:29:48Z</time>
      </trkpt>
      <trkpt lat="44.37478" lon="4.37459">
        <ele>185.9</ele>
        <time>2015-07-29T07:30:10Z</time>
      </trkpt>
      <trkpt lat="44.37472" lon="4.37473">
        <ele>186.7</ele>
        <time>2015-07-29T07:30:21Z</time>
      </trkpt>
      <trkpt lat="44.37467" lon="4.37488">
        <ele>187.4</ele>
        <time>2015-07-29T07:30:30Z</time>
      </trkpt>
      <trkpt lat="44.37461" lon="4.37501">
        <ele>187.3</ele>
        <time>2015-07-29T07:30:39Z</time>
      </trkpt>
      <trkpt lat="44.37454" lon="4.37513">
        <ele>187.9</ele>
        <time>2015-07-29T07:30:51Z</time>
      </trkpt>
      <trkpt lat="44.37445" lon="4.37522">
        <ele>188.6</ele>
        <time>2015-07-29T07:31:03Z</time>
      </trkpt>
      <trkpt lat="44.37439" lon="4.37536">
        <ele>189.6</ele>
        <time>2015-07-29T07:31:15Z</time>
      </trkpt>
      <trkpt lat="44.37436" lon="4.37546">
        <ele>190.3</ele>
        <time>2015-07-29T07:31:24Z</time>
      </trkpt>
      <trkpt lat="44.37431" lon="4.3756">
        <ele>190.3</ele>
        <time>2015-07-29T07:31:37Z</time>
      </trkpt>
      <trkpt lat="44.37424" lon="4.37564">
        <ele>191</ele>
        <time>2015-07-29T07:31:44Z</time>
      </trkpt>
      <trkpt lat="44.37416" lon="4.37574">
        <ele>191.5</ele>
        <time>2015-07-29T07:31:57Z</time>
      </trkpt>
      <trkpt lat="44.37408" lon="4.37587">
        <ele>192.8</ele>
        <time>2015-07-29T07:32:09Z</time>
      </trkpt>
      <trkpt lat="44.37403" lon="4.37594">
        <ele>192.9</ele>
        <time>2015-07-29T07:32:17Z</time>
      </trkpt>
      <trkpt lat="44.37394" lon="4.37604">
        <ele>192.4</ele>
        <time>2015-07-29T07:32:29Z</time>
      </trkpt>
      <trkpt lat="44.37387" lon="4.3761">
        <ele>191.6</ele>
        <time>2015-07-29T07:32:36Z</time>
      </trkpt>
      <trkpt lat="44.37382" lon="4.37617">
        <ele>191.7</ele>
        <time>2015-07-29T07:32:42Z</time>
      </trkpt>
      <trkpt lat="44.37374" lon="4.37619">
        <ele>192.3</ele>
        <time>2015-07-29T07:32:48Z</time>
      </trkpt>
      <trkpt lat="44.37366" lon="4.37618">
        <ele>193</ele>
        <time>2015-07-29T07:32:59Z</time>
      </trkpt>
      <trkpt lat="44.37358" lon="4.3763">
        <ele>194.7</ele>
        <time>2015-07-29T07:33:11Z</time>
      </trkpt>
      <trkpt lat="44.3735" lon="4.37644">
        <ele>197.1</ele>
        <time>2015-07-29T07:33:25Z</time>
      </trkpt>
      <trkpt lat="44.37341" lon="4.37656">
        <ele>197.9</ele>
        <time>2015-07-29T07:33:37Z</time>
      </trkpt>
      <trkpt lat="44.37329" lon="4.37664">
        <ele>199.1</ele>
        <time>2015-07-29T07:33:49Z</time>
      </trkpt>
      <trkpt lat="44.37323" lon="4.37678">
        <ele>200</ele>
        <time>2015-07-29T07:34:04Z</time>
      </trkpt>
      <trkpt lat="44.37318" lon="4.37694">
        <ele>200.8</ele>
        <time>2015-07-29T07:34:16Z</time>
      </trkpt>
      <trkpt lat="44.3731" lon="4.37705">
        <ele>201</ele>
        <time>2015-07-29T07:34:26Z</time>
      </trkpt>
      <trkpt lat="44.37304" lon="4.37711">
        <ele>200.7</ele>
        <time>2015-07-29T07:34:33Z</time>
      </trkpt>
      <trkpt lat="44.37298" lon="4.37718">
        <ele>200.4</ele>
        <time>2015-07-29T07:34:40Z</time>
      </trkpt>
      <trkpt lat="44.37293" lon="4.37726">
        <ele>200.3</ele>
        <time>2015-07-29T07:34:46Z</time>
      </trkpt>
      <trkpt lat="44.37291" lon="4.37737">
        <ele>200.3</ele>
        <time>2015-07-29T07:34:51Z</time>
      </trkpt>
      <trkpt lat="44.37286" lon="4.37745">
        <ele>199.8</ele>
        <time>2015-07-29T07:34:56Z</time>
      </trkpt>
      <trkpt lat="44.37282" lon="4.37753">
        <ele>199.4</ele>
        <time>2015-07-29T07:35:01Z</time>
      </trkpt>
      <trkpt lat="44.37268" lon="4.37749">
        <ele>198</ele>
        <time>2015-07-29T07:35:17Z</time>
      </trkpt>
      <trkpt lat="44.37266" lon="4.37764">
        <ele>197.7</ele>
        <time>2015-07-29T07:35:26Z</time>
      </trkpt>
      <trkpt lat="44.37258" lon="4.37773">
        <ele>197.1</ele>
        <time>2015-07-29T07:35:34Z</time>
      </trkpt>
      <trkpt lat="44.37256" lon="4.37783">
        <ele>196.8</ele>
        <time>2015-07-29T07:35:40Z</time>
      </trkpt>
      <trkpt lat="44.37254" lon="4.37793">
        <ele>196.1</ele>
        <time>2015-07-29T07:35:45Z</time>
      </trkpt>
      <trkpt lat="44.37254" lon="4.37808">
        <ele>195.9</ele>
        <time>2015-07-29T07:35:53Z</time>
      </trkpt>
      <trkpt lat="44.37249" lon="4.37823">
        <ele>198.6</ele>
        <time>2015-07-29T07:36:16Z</time>
      </trkpt>
      <trkpt lat="44.37245" lon="4.37835">
        <ele>199</ele>
        <time>2015-07-29T07:36:26Z</time>
      </trkpt>
      <trkpt lat="44.37241" lon="4.37845">
        <ele>199.8</ele>
        <time>2015-07-29T07:36:34Z</time>
      </trkpt>
      <trkpt lat="44.37236" lon="4.37853">
        <ele>201.6</ele>
        <time>2015-07-29T07:36:42Z</time>
      </trkpt>
      <trkpt lat="44.3723" lon="4.3786">
        <ele>203.6</ele>
        <time>2015-07-29T07:36:51Z</time>
      </trkpt>
      <trkpt lat="44.3722" lon="4.3787">
        <ele>204.7</ele>
        <time>2015-07-29T07:37:03Z</time>
      </trkpt>
      <trkpt lat="44.3721" lon="4.37877">
        <ele>205.1</ele>
        <time>2015-07-29T07:37:13Z</time>
      </trkpt>
      <trkpt lat="44.37204" lon="4.37892">
        <ele>206.8</ele>
        <time>2015-07-29T07:37:28Z</time>
      </trkpt>
      <trkpt lat="44.37196" lon="4.379">
        <ele>208.3</ele>
        <time>2015-07-29T07:37:39Z</time>
      </trkpt>
      <trkpt lat="44.37191" lon="4.37907">
        <ele>209.6</ele>
        <time>2015-07-29T07:37:48Z</time>
      </trkpt>
      <trkpt lat="44.37185" lon="4.37914">
        <ele>210.4</ele>
        <time>2015-07-29T07:37:56Z</time>
      </trkpt>
      <trkpt lat="44.37178" lon="4.37918">
        <ele>210.2</ele>
        <time>2015-07-29T07:38:05Z</time>
      </trkpt>
      <trkpt lat="44.37172" lon="4.3793">
        <ele>211</ele>
        <time>2015-07-29T07:38:16Z</time>
      </trkpt>
      <trkpt lat="44.37172" lon="4.37942">
        <ele>211.5</ele>
        <time>2015-07-29T07:38:23Z</time>
      </trkpt>
      <trkpt lat="44.37172" lon="4.37953">
        <ele>211.8</ele>
        <time>2015-07-29T07:38:28Z</time>
      </trkpt>
      <trkpt lat="44.37169" lon="4.37963">
        <ele>212.3</ele>
        <time>2015-07-29T07:38:34Z</time>
      </trkpt>
      <trkpt lat="44.37167" lon="4.37974">
        <ele>213.4</ele>
        <time>2015-07-29T07:38:42Z</time>
      </trkpt>
      <trkpt lat="44.37166" lon="4.37984">
        <ele>214.1</ele>
        <time>2015-07-29T07:38:51Z</time>
      </trkpt>
      <trkpt lat="44.37161" lon="4.37991">
        <ele>214.5</ele>
        <time>2015-07-29T07:39:00Z</time>
      </trkpt>
      <trkpt lat="44.37158" lon="4.38001">
        <ele>214.5</ele>
        <time>2015-07-29T07:39:08Z</time>
      </trkpt>
      <trkpt lat="44.37154" lon="4.38012">
        <ele>214.8</ele>
        <time>2015-07-29T07:39:25Z</time>
      </trkpt>
      <trkpt lat="44.37145" lon="4.38021">
        <ele>215.2</ele>
        <time>2015-07-29T07:39:37Z</time>
      </trkpt>
      <trkpt lat="44.37143" lon="4.38036">
        <ele>217.4</ele>
        <time>2015-07-29T07:39:48Z</time>
      </trkpt>
      <trkpt lat="44.3714" lon="4.38045">
        <ele>219.2</ele>
        <time>2015-07-29T07:39:57Z</time>
      </trkpt>
      <trkpt lat="44.37128" lon="4.38049">
        <ele>220.2</ele>
        <time>2015-07-29T07:40:10Z</time>
      </trkpt>
      <trkpt lat="44.3712" lon="4.38058">
        <ele>221.7</ele>
        <time>2015-07-29T07:40:24Z</time>
      </trkpt>
      <trkpt lat="44.37113" lon="4.38057">
        <ele>222.5</ele>
        <time>2015-07-29T07:40:33Z</time>
      </trkpt>
      <trkpt lat="44.37106" lon="4.38062">
        <ele>222.9</ele>
        <time>2015-07-29T07:40:42Z</time>
      </trkpt>
      <trkpt lat="44.37097" lon="4.38067">
        <ele>224</ele>
        <time>2015-07-29T07:40:53Z</time>
      </trkpt>
      <trkpt lat="44.3709" lon="4.38071">
        <ele>224.7</ele>
        <time>2015-07-29T07:41:07Z</time>
      </trkpt>
      <trkpt lat="44.37084" lon="4.38077">
        <ele>227.6</ele>
        <time>2015-07-29T07:42:05Z</time>
      </trkpt>
      <trkpt lat="44.37084" lon="4.3809">
        <ele>228.4</ele>
        <time>2015-07-29T07:42:11Z</time>
      </trkpt>
      <trkpt lat="44.37085" lon="4.38101">
        <ele>229.7</ele>
        <time>2015-07-29T07:42:18Z</time>
      </trkpt>
      <trkpt lat="44.37083" lon="4.38111">
        <ele>231.1</ele>
        <time>2015-07-29T07:42:27Z</time>
      </trkpt>
      <trkpt lat="44.37082" lon="4.38123">
        <ele>232.9</ele>
        <time>2015-07-29T07:42:38Z</time>
      </trkpt>
      <trkpt lat="44.3708" lon="4.38142">
        <ele>234.9</ele>
        <time>2015-07-29T07:42:51Z</time>
      </trkpt>
      <trkpt lat="44.3708" lon="4.38158">
        <ele>235.4</ele>
        <time>2015-07-29T07:43:01Z</time>
      </trkpt>
      <trkpt lat="44.37077" lon="4.38167">
        <ele>235.8</ele>
        <time>2015-07-29T07:43:11Z</time>
      </trkpt>
      <trkpt lat="44.37077" lon="4.38178">
        <ele>236.9</ele>
        <time>2015-07-29T07:43:21Z</time>
      </trkpt>
      <trkpt lat="44.37073" lon="4.38188">
        <ele>237.9</ele>
        <time>2015-07-29T07:43:30Z</time>
      </trkpt>
      <trkpt lat="44.37071" lon="4.38201">
        <ele>239.4</ele>
        <time>2015-07-29T07:43:40Z</time>
      </trkpt>
      <trkpt lat="44.37066" lon="4.38211">
        <ele>240.5</ele>
        <time>2015-07-29T07:43:47Z</time>
      </trkpt>
      <trkpt lat="44.37063" lon="4.3822">
        <ele>241.5</ele>
        <time>2015-07-29T07:43:53Z</time>
      </trkpt>
      <trkpt lat="44.37058" lon="4.38234">
        <ele>241.7</ele>
        <time>2015-07-29T07:44:02Z</time>
      </trkpt>
      <trkpt lat="44.37054" lon="4.38244">
        <ele>242.1</ele>
        <time>2015-07-29T07:44:11Z</time>
      </trkpt>
      <trkpt lat="44.37048" lon="4.3825">
        <ele>242.3</ele>
        <time>2015-07-29T07:44:18Z</time>
      </trkpt>
      <trkpt lat="44.37042" lon="4.38259">
        <ele>242.7</ele>
        <time>2015-07-29T07:44:27Z</time>
      </trkpt>
      <trkpt lat="44.37037" lon="4.38266">
        <ele>242.9</ele>
        <time>2015-07-29T07:44:33Z</time>
      </trkpt>
      <trkpt lat="44.37029" lon="4.38277">
        <ele>242.8</ele>
        <time>2015-07-29T07:44:43Z</time>
      </trkpt>
      <trkpt lat="44.37024" lon="4.38284">
        <ele>243.5</ele>
        <time>2015-07-29T07:44:50Z</time>
      </trkpt>
      <trkpt lat="44.37021" lon="4.38297">
        <ele>244.7</ele>
        <time>2015-07-29T07:45:00Z</time>
      </trkpt>
      <trkpt lat="44.37021" lon="4.38311">
        <ele>244.9</ele>
        <time>2015-07-29T07:45:08Z</time>
      </trkpt>
      <trkpt lat="44.37015" lon="4.38323">
        <ele>245.7</ele>
        <time>2015-07-29T07:45:18Z</time>
      </trkpt>
      <trkpt lat="44.37012" lon="4.38333">
        <ele>245.8</ele>
        <time>2015-07-29T07:45:23Z</time>
      </trkpt>
      <trkpt lat="44.37005" lon="4.38343">
        <ele>246.9</ele>
        <time>2015-07-29T07:45:33Z</time>
      </trkpt>
      <trkpt lat="44.36998" lon="4.3836">
        <ele>247.6</ele>
        <time>2015-07-29T07:45:47Z</time>
      </trkpt>
      <trkpt lat="44.36994" lon="4.38369">
        <ele>247.5</ele>
        <time>2015-07-29T07:45:53Z</time>
      </trkpt>
      <trkpt lat="44.36987" lon="4.38375">
        <ele>247.9</ele>
        <time>2015-07-29T07:45:59Z</time>
      </trkpt>
      <trkpt lat="44.36987" lon="4.3839">
        <ele>248.8</ele>
        <time>2015-07-29T07:46:11Z</time>
      </trkpt>
      <trkpt lat="44.36984" lon="4.38405">
        <ele>249.1</ele>
        <time>2015-07-29T07:46:21Z</time>
      </trkpt>
      <trkpt lat="44.36979" lon="4.38419">
        <ele>249</ele>
        <time>2015-07-29T07:46:31Z</time>
      </trkpt>
      <trkpt lat="44.36978" lon="4.38434">
        <ele>250</ele>
        <time>2015-07-29T07:46:41Z</time>
      </trkpt>
      <trkpt lat="44.36969" lon="4.38444">
        <ele>250.4</ele>
        <time>2015-07-29T07:46:48Z</time>
      </trkpt>
      <trkpt lat="44.36963" lon="4.38452">
        <ele>250.3</ele>
        <time>2015-07-29T07:46:54Z</time>
      </trkpt>
      <trkpt lat="44.36954" lon="4.38463">
        <ele>249.7</ele>
        <time>2015-07-29T07:47:06Z</time>
      </trkpt>
      <trkpt lat="44.36943" lon="4.3847">
        <ele>248.2</ele>
        <time>2015-07-29T07:47:17Z</time>
      </trkpt>
      <trkpt lat="44.36929" lon="4.38476">
        <ele>247.1</ele>
        <time>2015-07-29T07:47:28Z</time>
      </trkpt>
      <trkpt lat="44.36922" lon="4.38487">
        <ele>246.9</ele>
        <time>2015-07-29T07:47:38Z</time>
      </trkpt>
      <trkpt lat="44.36915" lon="4.38499">
        <ele>246.9</ele>
        <time>2015-07-29T07:47:48Z</time>
      </trkpt>
      <trkpt lat="44.36906" lon="4.38514">
        <ele>245.5</ele>
        <time>2015-07-29T07:48:02Z</time>
      </trkpt>
      <trkpt lat="44.36896" lon="4.38505">
        <ele>245.1</ele>
        <time>2015-07-29T07:48:11Z</time>
      </trkpt>
      <trkpt lat="44.36883" lon="4.385">
        <ele>244.6</ele>
        <time>2015-07-29T07:48:24Z</time>
      </trkpt>
      <trkpt lat="44.36877" lon="4.38492">
        <ele>243.3</ele>
        <time>2015-07-29T07:48:33Z</time>
      </trkpt>
      <trkpt lat="44.36868" lon="4.38488">
        <ele>241.4</ele>
        <time>2015-07-29T07:48:44Z</time>
      </trkpt>
      <trkpt lat="44.36858" lon="4.38484">
        <ele>240.1</ele>
        <time>2015-07-29T07:48:55Z</time>
      </trkpt>
      <trkpt lat="44.3685" lon="4.38481">
        <ele>239.9</ele>
        <time>2015-07-29T07:49:02Z</time>
      </trkpt>
      <trkpt lat="44.36841" lon="4.38479">
        <ele>239.8</ele>
        <time>2015-07-29T07:49:10Z</time>
      </trkpt>
      <trkpt lat="44.36834" lon="4.38475">
        <ele>239.7</ele>
        <time>2015-07-29T07:49:18Z</time>
      </trkpt>
      <trkpt lat="44.36826" lon="4.38473">
        <ele>239.5</ele>
        <time>2015-07-29T07:49:25Z</time>
      </trkpt>
      <trkpt lat="44.36819" lon="4.38471">
        <ele>238.7</ele>
        <time>2015-07-29T07:49:34Z</time>
      </trkpt>
      <trkpt lat="44.36809" lon="4.38468">
        <ele>237.1</ele>
        <time>2015-07-29T07:49:46Z</time>
      </trkpt>
      <trkpt lat="44.368" lon="4.38464">
        <ele>235.9</ele>
        <time>2015-07-29T07:49:55Z</time>
      </trkpt>
      <trkpt lat="44.36789" lon="4.38458">
        <ele>233.5</ele>
        <time>2015-07-29T07:50:05Z</time>
      </trkpt>
      <trkpt lat="44.36781" lon="4.38455">
        <ele>232.1</ele>
        <time>2015-07-29T07:50:12Z</time>
      </trkpt>
      <trkpt lat="44.3677" lon="4.38452">
        <ele>230.8</ele>
        <time>2015-07-29T07:50:21Z</time>
      </trkpt>
      <trkpt lat="44.36763" lon="4.3845">
        <ele>228.3</ele>
        <time>2015-07-29T07:50:30Z</time>
      </trkpt>
      <trkpt lat="44.36755" lon="4.38447">
        <ele>227.1</ele>
        <time>2015-07-29T07:50:37Z</time>
      </trkpt>
      <trkpt lat="44.36747" lon="4.38444">
        <ele>226.4</ele>
        <time>2015-07-29T07:50:43Z</time>
      </trkpt>
      <trkpt lat="44.36737" lon="4.38441">
        <ele>225.6</ele>
        <time>2015-07-29T07:50:53Z</time>
      </trkpt>
      <trkpt lat="44.3673" lon="4.38442">
        <ele>224.9</ele>
        <time>2015-07-29T07:51:00Z</time>
      </trkpt>
      <trkpt lat="44.36719" lon="4.38448">
        <ele>224.4</ele>
        <time>2015-07-29T07:51:09Z</time>
      </trkpt>
      <trkpt lat="44.36712" lon="4.38447">
        <ele>224.3</ele>
        <time>2015-07-29T07:51:14Z</time>
      </trkpt>
      <trkpt lat="44.36702" lon="4.38452">
        <ele>224.5</ele>
        <time>2015-07-29T07:51:22Z</time>
      </trkpt>
      <trkpt lat="44.36691" lon="4.38457">
        <ele>225</ele>
        <time>2015-07-29T07:51:31Z</time>
      </trkpt>
      <trkpt lat="44.3668" lon="4.38457">
        <ele>224.8</ele>
        <time>2015-07-29T07:51:41Z</time>
      </trkpt>
      <trkpt lat="44.36672" lon="4.38455">
        <ele>224.8</ele>
        <time>2015-07-29T07:51:49Z</time>
      </trkpt>
      <trkpt lat="44.36665" lon="4.38454">
        <ele>224.1</ele>
        <time>2015-07-29T07:51:59Z</time>
      </trkpt>
      <trkpt lat="44.36654" lon="4.38453">
        <ele>220.7</ele>
        <time>2015-07-29T07:52:13Z</time>
      </trkpt>
      <trkpt lat="44.36646" lon="4.38451">
        <ele>219.7</ele>
        <time>2015-07-29T07:52:22Z</time>
      </trkpt>
      <trkpt lat="44.36638" lon="4.3845">
        <ele>217.8</ele>
        <time>2015-07-29T07:52:32Z</time>
      </trkpt>
      <trkpt lat="44.36628" lon="4.38449">
        <ele>217.2</ele>
        <time>2015-07-29T07:52:41Z</time>
      </trkpt>
      <trkpt lat="44.36616" lon="4.38447">
        <ele>216.1</ele>
        <time>2015-07-29T07:52:50Z</time>
      </trkpt>
      <trkpt lat="44.36605" lon="4.38445">
        <ele>214.6</ele>
        <time>2015-07-29T07:53:00Z</time>
      </trkpt>
      <trkpt lat="44.366" lon="4.38463">
        <ele>210.9</ele>
        <time>2015-07-29T07:53:36Z</time>
      </trkpt>
      <trkpt lat="44.36596" lon="4.38477">
        <ele>210.4</ele>
        <time>2015-07-29T07:53:43Z</time>
      </trkpt>
      <trkpt lat="44.3659" lon="4.38485">
        <ele>209.2</ele>
        <time>2015-07-29T07:53:52Z</time>
      </trkpt>
      <trkpt lat="44.36585" lon="4.38491">
        <ele>209.2</ele>
        <time>2015-07-29T07:53:57Z</time>
      </trkpt>
      <trkpt lat="44.36578" lon="4.385">
        <ele>208.6</ele>
        <time>2015-07-29T07:54:05Z</time>
      </trkpt>
      <trkpt lat="44.36572" lon="4.38506">
        <ele>207.9</ele>
        <time>2015-07-29T07:54:11Z</time>
      </trkpt>
      <trkpt lat="44.36565" lon="4.38519">
        <ele>207.1</ele>
        <time>2015-07-29T07:54:20Z</time>
      </trkpt>
      <trkpt lat="44.3656" lon="4.38527">
        <ele>206.5</ele>
        <time>2015-07-29T07:54:26Z</time>
      </trkpt>
      <trkpt lat="44.36554" lon="4.38533">
        <ele>206</ele>
        <time>2015-07-29T07:54:34Z</time>
      </trkpt>
      <trkpt lat="44.36546" lon="4.38534">
        <ele>205.6</ele>
        <time>2015-07-29T07:54:43Z</time>
      </trkpt>
      <trkpt lat="44.36538" lon="4.38535">
        <ele>205.1</ele>
        <time>2015-07-29T07:54:53Z</time>
      </trkpt>
      <trkpt lat="44.3653" lon="4.38541">
        <ele>205.6</ele>
        <time>2015-07-29T07:55:00Z</time>
      </trkpt>
      <trkpt lat="44.36525" lon="4.38544">
        <ele>206.3</ele>
        <time>2015-07-29T07:55:09Z</time>
      </trkpt>
      <trkpt lat="44.36517" lon="4.38541">
        <ele>206.6</ele>
        <time>2015-07-29T07:55:19Z</time>
      </trkpt>
      <trkpt lat="44.36511" lon="4.38545">
        <ele>206.2</ele>
        <time>2015-07-29T07:55:28Z</time>
      </trkpt>
      <trkpt lat="44.36503" lon="4.38548">
        <ele>206.3</ele>
        <time>2015-07-29T07:55:37Z</time>
      </trkpt>
      <trkpt lat="44.36496" lon="4.38553">
        <ele>206</ele>
        <time>2015-07-29T07:55:46Z</time>
      </trkpt>
      <trkpt lat="44.36491" lon="4.3856">
        <ele>205.6</ele>
        <time>2015-07-29T07:55:51Z</time>
      </trkpt>
      <trkpt lat="44.36483" lon="4.38562">
        <ele>205.4</ele>
        <time>2015-07-29T07:56:00Z</time>
      </trkpt>
      <trkpt lat="44.36472" lon="4.38568">
        <ele>204.8</ele>
        <time>2015-07-29T07:56:10Z</time>
      </trkpt>
      <trkpt lat="44.36464" lon="4.3857">
        <ele>204.5</ele>
        <time>2015-07-29T07:56:19Z</time>
      </trkpt>
      <trkpt lat="44.36451" lon="4.3857">
        <ele>204.5</ele>
        <time>2015-07-29T07:56:30Z</time>
      </trkpt>
      <trkpt lat="44.36443" lon="4.38569">
        <ele>204.5</ele>
        <time>2015-07-29T07:56:38Z</time>
      </trkpt>
      <trkpt lat="44.36433" lon="4.38566">
        <ele>204.4</ele>
        <time>2015-07-29T07:56:49Z</time>
      </trkpt>
      <trkpt lat="44.36424" lon="4.38564">
        <ele>205.1</ele>
        <time>2015-07-29T07:57:02Z</time>
      </trkpt>
      <trkpt lat="44.36414" lon="4.38564">
        <ele>207</ele>
        <time>2015-07-29T07:57:28Z</time>
      </trkpt>
      <trkpt lat="44.36407" lon="4.38568">
        <ele>207.4</ele>
        <time>2015-07-29T07:57:34Z</time>
      </trkpt>
      <trkpt lat="44.36397" lon="4.38573">
        <ele>207.9</ele>
        <time>2015-07-29T07:57:43Z</time>
      </trkpt>
      <trkpt lat="44.36389" lon="4.38574">
        <ele>208.8</ele>
        <time>2015-07-29T07:57:50Z</time>
      </trkpt>
      <trkpt lat="44.36382" lon="4.38576">
        <ele>209.5</ele>
        <time>2015-07-29T07:57:57Z</time>
      </trkpt>
      <trkpt lat="44.36375" lon="4.38579">
        <ele>210.1</ele>
        <time>2015-07-29T07:58:07Z</time>
      </trkpt>
      <trkpt lat="44.36364" lon="4.38583">
        <ele>211.9</ele>
        <time>2015-07-29T07:58:19Z</time>
      </trkpt>
      <trkpt lat="44.36357" lon="4.38587">
        <ele>212.6</ele>
        <time>2015-07-29T07:58:26Z</time>
      </trkpt>
      <trkpt lat="44.36349" lon="4.3859">
        <ele>213.6</ele>
        <time>2015-07-29T07:58:33Z</time>
      </trkpt>
      <trkpt lat="44.36342" lon="4.3859">
        <ele>214.4</ele>
        <time>2015-07-29T07:58:39Z</time>
      </trkpt>
      <trkpt lat="44.36334" lon="4.38585">
        <ele>215</ele>
        <time>2015-07-29T07:58:47Z</time>
      </trkpt>
      <trkpt lat="44.36328" lon="4.38571">
        <ele>215.3</ele>
        <time>2015-07-29T07:58:56Z</time>
      </trkpt>
      <trkpt lat="44.36324" lon="4.38564">
        <ele>215.1</ele>
        <time>2015-07-29T07:59:01Z</time>
      </trkpt>
      <trkpt lat="44.36321" lon="4.38557">
        <ele>215.3</ele>
        <time>2015-07-29T07:59:06Z</time>
      </trkpt>
      <trkpt lat="44.36313" lon="4.38546">
        <ele>215.4</ele>
        <time>2015-07-29T07:59:19Z</time>
      </trkpt>
      <trkpt lat="44.36306" lon="4.3854">
        <ele>216.8</ele>
        <time>2015-07-29T07:59:27Z</time>
      </trkpt>
      <trkpt lat="44.36296" lon="4.38533">
        <ele>218.7</ele>
        <time>2015-07-29T07:59:36Z</time>
      </trkpt>
      <trkpt lat="44.36289" lon="4.38528">
        <ele>219.7</ele>
        <time>2015-07-29T07:59:45Z</time>
      </trkpt>
      <trkpt lat="44.36281" lon="4.38525">
        <ele>219.6</ele>
        <time>2015-07-29T07:59:57Z</time>
      </trkpt>
      <trkpt lat="44.36274" lon="4.38521">
        <ele>219</ele>
        <time>2015-07-29T08:00:05Z</time>
      </trkpt>
      <trkpt lat="44.36266" lon="4.38518">
        <ele>217.9</ele>
        <time>2015-07-29T08:00:15Z</time>
      </trkpt>
      <trkpt lat="44.36255" lon="4.38514">
        <ele>216.5</ele>
        <time>2015-07-29T08:00:29Z</time>
      </trkpt>
      <trkpt lat="44.36244" lon="4.38512">
        <ele>215.3</ele>
        <time>2015-07-29T08:00:43Z</time>
      </trkpt>
      <trkpt lat="44.36232" lon="4.38516">
        <ele>215.6</ele>
        <time>2015-07-29T08:00:54Z</time>
      </trkpt>
      <trkpt lat="44.36219" lon="4.38516">
        <ele>217</ele>
        <time>2015-07-29T08:01:02Z</time>
      </trkpt>
      <trkpt lat="44.36211" lon="4.38517">
        <ele>218</ele>
        <time>2015-07-29T08:01:07Z</time>
      </trkpt>
      <trkpt lat="44.36204" lon="4.38514">
        <ele>221.6</ele>
        <time>2015-07-29T08:02:09Z</time>
      </trkpt>
      <trkpt lat="44.36196" lon="4.38518">
        <ele>223</ele>
        <time>2015-07-29T08:02:23Z</time>
      </trkpt>
      <trkpt lat="44.36185" lon="4.38522">
        <ele>223.5</ele>
        <time>2015-07-29T08:02:33Z</time>
      </trkpt>
      <trkpt lat="44.36174" lon="4.38524">
        <ele>223.9</ele>
        <time>2015-07-29T08:02:44Z</time>
      </trkpt>
      <trkpt lat="44.36163" lon="4.38522">
        <ele>223.7</ele>
        <time>2015-07-29T08:02:52Z</time>
      </trkpt>
      <trkpt lat="44.3615" lon="4.38523">
        <ele>223.5</ele>
        <time>2015-07-29T08:03:02Z</time>
      </trkpt>
      <trkpt lat="44.36134" lon="4.38524">
        <ele>223.7</ele>
        <time>2015-07-29T08:03:17Z</time>
      </trkpt>
      <trkpt lat="44.36123" lon="4.38528">
        <ele>222.9</ele>
        <time>2015-07-29T08:03:30Z</time>
      </trkpt>
      <trkpt lat="44.36111" lon="4.38528">
        <ele>223.4</ele>
        <time>2015-07-29T08:03:46Z</time>
      </trkpt>
      <trkpt lat="44.36099" lon="4.3853">
        <ele>224.6</ele>
        <time>2015-07-29T08:03:57Z</time>
      </trkpt>
      <trkpt lat="44.36087" lon="4.38528">
        <ele>225.8</ele>
        <time>2015-07-29T08:04:16Z</time>
      </trkpt>
      <trkpt lat="44.36071" lon="4.38526">
        <ele>226.1</ele>
        <time>2015-07-29T08:04:28Z</time>
      </trkpt>
      <trkpt lat="44.36065" lon="4.38519">
        <ele>226.9</ele>
        <time>2015-07-29T08:04:42Z</time>
      </trkpt>
      <trkpt lat="44.36059" lon="4.38508">
        <ele>228.8</ele>
        <time>2015-07-29T08:04:56Z</time>
      </trkpt>
      <trkpt lat="44.36053" lon="4.38499">
        <ele>229.9</ele>
        <time>2015-07-29T08:05:03Z</time>
      </trkpt>
      <trkpt lat="44.36046" lon="4.38493">
        <ele>230.5</ele>
        <time>2015-07-29T08:05:06Z</time>
      </trkpt>
      <trkpt lat="44.36039" lon="4.38488">
        <ele>231.4</ele>
        <time>2015-07-29T08:05:10Z</time>
      </trkpt>
      <trkpt lat="44.36031" lon="4.38486">
        <ele>232.7</ele>
        <time>2015-07-29T08:05:17Z</time>
      </trkpt>
      <trkpt lat="44.36023" lon="4.38484">
        <ele>233.8</ele>
        <time>2015-07-29T08:05:25Z</time>
      </trkpt>
      <trkpt lat="44.36015" lon="4.38486">
        <ele>234.8</ele>
        <time>2015-07-29T08:05:33Z</time>
      </trkpt>
      <trkpt lat="44.36008" lon="4.38492">
        <ele>235.7</ele>
        <time>2015-07-29T08:05:40Z</time>
      </trkpt>
      <trkpt lat="44.36002" lon="4.38499">
        <ele>236.3</ele>
        <time>2015-07-29T08:05:47Z</time>
      </trkpt>
      <trkpt lat="44.36" lon="4.38512">
        <ele>236.3</ele>
        <time>2015-07-29T08:05:56Z</time>
      </trkpt>
      <trkpt lat="44.35997" lon="4.38522">
        <ele>236.8</ele>
        <time>2015-07-29T08:06:03Z</time>
      </trkpt>
      <trkpt lat="44.35994" lon="4.38532">
        <ele>236.7</ele>
        <time>2015-07-29T08:06:10Z</time>
      </trkpt>
      <trkpt lat="44.35996" lon="4.38543">
        <ele>237.2</ele>
        <time>2015-07-29T08:06:17Z</time>
      </trkpt>
      <trkpt lat="44.36" lon="4.38552">
        <ele>237.4</ele>
        <time>2015-07-29T08:06:22Z</time>
      </trkpt>
      <trkpt lat="44.36007" lon="4.38564">
        <ele>237.9</ele>
        <time>2015-07-29T08:06:32Z</time>
      </trkpt>
      <trkpt lat="44.36012" lon="4.38572">
        <ele>238.6</ele>
        <time>2015-07-29T08:06:43Z</time>
      </trkpt>
      <trkpt lat="44.36016" lon="4.38581">
        <ele>239.1</ele>
        <time>2015-07-29T08:06:51Z</time>
      </trkpt>
      <trkpt lat="44.36018" lon="4.38594">
        <ele>240</ele>
        <time>2015-07-29T08:06:58Z</time>
      </trkpt>
      <trkpt lat="44.36018" lon="4.38605">
        <ele>240.8</ele>
        <time>2015-07-29T08:07:05Z</time>
      </trkpt>
      <trkpt lat="44.36016" lon="4.38615">
        <ele>241.6</ele>
        <time>2015-07-29T08:07:14Z</time>
      </trkpt>
      <trkpt lat="44.36016" lon="4.38626">
        <ele>242.1</ele>
        <time>2015-07-29T08:07:21Z</time>
      </trkpt>
      <trkpt lat="44.36015" lon="4.3864">
        <ele>243.8</ele>
        <time>2015-07-29T08:07:32Z</time>
      </trkpt>
      <trkpt lat="44.36013" lon="4.3865">
        <ele>245</ele>
        <time>2015-07-29T08:07:41Z</time>
      </trkpt>
      <trkpt lat="44.36013" lon="4.3866">
        <ele>246.1</ele>
        <time>2015-07-29T08:07:47Z</time>
      </trkpt>
      <trkpt lat="44.36012" lon="4.38671">
        <ele>247.3</ele>
        <time>2015-07-29T08:07:54Z</time>
      </trkpt>
      <trkpt lat="44.36007" lon="4.38679">
        <ele>248</ele>
        <time>2015-07-29T08:08:00Z</time>
      </trkpt>
      <trkpt lat="44.36002" lon="4.38688">
        <ele>248.6</ele>
        <time>2015-07-29T08:08:07Z</time>
      </trkpt>
      <trkpt lat="44.35998" lon="4.38703">
        <ele>249.1</ele>
        <time>2015-07-29T08:08:17Z</time>
      </trkpt>
      <trkpt lat="44.35997" lon="4.38719">
        <ele>249.4</ele>
        <time>2015-07-29T08:08:28Z</time>
      </trkpt>
      <trkpt lat="44.35993" lon="4.38732">
        <ele>249.5</ele>
        <time>2015-07-29T08:08:38Z</time>
      </trkpt>
      <trkpt lat="44.35993" lon="4.38743">
        <ele>249.1</ele>
        <time>2015-07-29T08:08:44Z</time>
      </trkpt>
      <trkpt lat="44.35992" lon="4.38753">
        <ele>248.8</ele>
        <time>2015-07-29T08:08:51Z</time>
      </trkpt>
      <trkpt lat="44.35991" lon="4.38763">
        <ele>248.6</ele>
        <time>2015-07-29T08:08:59Z</time>
      </trkpt>
      <trkpt lat="44.35991" lon="4.38774">
        <ele>248.6</ele>
        <time>2015-07-29T08:09:06Z</time>
      </trkpt>
      <trkpt lat="44.35989" lon="4.38784">
        <ele>248.2</ele>
        <time>2015-07-29T08:09:33Z</time>
      </trkpt>
      <trkpt lat="44.3599" lon="4.38794">
        <ele>248.1</ele>
        <time>2015-07-29T08:09:40Z</time>
      </trkpt>
      <trkpt lat="44.35993" lon="4.38805">
        <ele>248.3</ele>
        <time>2015-07-29T08:09:47Z</time>
      </trkpt>
      <trkpt lat="44.35996" lon="4.38811">
        <ele>248.6</ele>
        <time>2015-07-29T08:09:53Z</time>
      </trkpt>
      <trkpt lat="44.35991" lon="4.38805">
        <ele>249.5</ele>
        <time>2015-07-29T08:10:03Z</time>
      </trkpt>
      <trkpt lat="44.3599" lon="4.38798">
        <ele>249.7</ele>
        <time>2015-07-29T08:10:09Z</time>
      </trkpt>
      <trkpt lat="44.35989" lon="4.3879">
        <ele>250.4</ele>
        <time>2015-07-29T08:10:17Z</time>
      </trkpt>
      <trkpt lat="44.35989" lon="4.38781">
        <ele>250.5</ele>
        <time>2015-07-29T08:10:24Z</time>
      </trkpt>
      <trkpt lat="44.35991" lon="4.38772">
        <ele>251.1</ele>
        <time>2015-07-29T08:10:30Z</time>
      </trkpt>
      <trkpt lat="44.35993" lon="4.38763">
        <ele>251.1</ele>
        <time>2015-07-29T08:10:35Z</time>
      </trkpt>
      <trkpt lat="44.35994" lon="4.38755">
        <ele>250.8</ele>
        <time>2015-07-29T08:10:40Z</time>
      </trkpt>
      <trkpt lat="44.35994" lon="4.38747">
        <ele>250.9</ele>
        <time>2015-07-29T08:10:46Z</time>
      </trkpt>
      <trkpt lat="44.35995" lon="4.38738">
        <ele>251</ele>
        <time>2015-07-29T08:10:52Z</time>
      </trkpt>
      <trkpt lat="44.35996" lon="4.3873">
        <ele>251.5</ele>
        <time>2015-07-29T08:10:57Z</time>
      </trkpt>
      <trkpt lat="44.35998" lon="4.38721">
        <ele>251.9</ele>
        <time>2015-07-29T08:11:03Z</time>
      </trkpt>
      <trkpt lat="44.35999" lon="4.38714">
        <ele>251.9</ele>
        <time>2015-07-29T08:11:07Z</time>
      </trkpt>
      <trkpt lat="44.36001" lon="4.38703">
        <ele>252</ele>
        <time>2015-07-29T08:11:14Z</time>
      </trkpt>
      <trkpt lat="44.36003" lon="4.38693">
        <ele>252.1</ele>
        <time>2015-07-29T08:11:20Z</time>
      </trkpt>
      <trkpt lat="44.36005" lon="4.38686">
        <ele>251.9</ele>
        <time>2015-07-29T08:11:25Z</time>
      </trkpt>
      <trkpt lat="44.36008" lon="4.38678">
        <ele>252</ele>
        <time>2015-07-29T08:11:31Z</time>
      </trkpt>
      <trkpt lat="44.3601" lon="4.38667">
        <ele>252.4</ele>
        <time>2015-07-29T08:11:37Z</time>
      </trkpt>
      <trkpt lat="44.36013" lon="4.38659">
        <ele>252.4</ele>
        <time>2015-07-29T08:11:45Z</time>
      </trkpt>
      <trkpt lat="44.36017" lon="4.38651">
        <ele>252</ele>
        <time>2015-07-29T08:11:58Z</time>
      </trkpt>
      <trkpt lat="44.36016" lon="4.38643">
        <ele>250.9</ele>
        <time>2015-07-29T08:12:22Z</time>
      </trkpt>
      <trkpt lat="44.36015" lon="4.38633">
        <ele>250.4</ele>
        <time>2015-07-29T08:12:32Z</time>
      </trkpt>
      <trkpt lat="44.36018" lon="4.38623">
        <ele>249.6</ele>
        <time>2015-07-29T08:12:39Z</time>
      </trkpt>
      <trkpt lat="44.36018" lon="4.38611">
        <ele>248.2</ele>
        <time>2015-07-29T08:12:47Z</time>
      </trkpt>
      <trkpt lat="44.36017" lon="4.38601">
        <ele>246.8</ele>
        <time>2015-07-29T08:12:54Z</time>
      </trkpt>
      <trkpt lat="44.36014" lon="4.38591">
        <ele>245.8</ele>
        <time>2015-07-29T08:13:02Z</time>
      </trkpt>
      <trkpt lat="44.36012" lon="4.3858">
        <ele>245</ele>
        <time>2015-07-29T08:13:09Z</time>
      </trkpt>
      <trkpt lat="44.36015" lon="4.38565">
        <ele>243.9</ele>
        <time>2015-07-29T08:13:19Z</time>
      </trkpt>
      <trkpt lat="44.36018" lon="4.38554">
        <ele>243.6</ele>
        <time>2015-07-29T08:13:26Z</time>
      </trkpt>
      <trkpt lat="44.36022" lon="4.38544">
        <ele>243.1</ele>
        <time>2015-07-29T08:13:33Z</time>
      </trkpt>
      <trkpt lat="44.36027" lon="4.38537">
        <ele>242.2</ele>
        <time>2015-07-29T08:13:41Z</time>
      </trkpt>
      <trkpt lat="44.36032" lon="4.38532">
        <ele>242</ele>
        <time>2015-07-29T08:13:47Z</time>
      </trkpt>
      <trkpt lat="44.36036" lon="4.38524">
        <ele>242.1</ele>
        <time>2015-07-29T08:13:53Z</time>
      </trkpt>
      <trkpt lat="44.36041" lon="4.3852">
        <ele>242</ele>
        <time>2015-07-29T08:13:58Z</time>
      </trkpt>
      <trkpt lat="44.36046" lon="4.38511">
        <ele>241.1</ele>
        <time>2015-07-29T08:14:06Z</time>
      </trkpt>
      <trkpt lat="44.36053" lon="4.38506">
        <ele>239.2</ele>
        <time>2015-07-29T08:14:19Z</time>
      </trkpt>
      <trkpt lat="44.36058" lon="4.38506">
        <ele>238.9</ele>
        <time>2015-07-29T08:14:27Z</time>
      </trkpt>
      <trkpt lat="44.36064" lon="4.38513">
        <ele>237.9</ele>
        <time>2015-07-29T08:14:41Z</time>
      </trkpt>
      <trkpt lat="44.36072" lon="4.38513">
        <ele>236.8</ele>
        <time>2015-07-29T08:14:49Z</time>
      </trkpt>
      <trkpt lat="44.36078" lon="4.38514">
        <ele>236</ele>
        <time>2015-07-29T08:14:56Z</time>
      </trkpt>
      <trkpt lat="44.36086" lon="4.38515">
        <ele>235.6</ele>
        <time>2015-07-29T08:15:03Z</time>
      </trkpt>
      <trkpt lat="44.36094" lon="4.38517">
        <ele>234.6</ele>
        <time>2015-07-29T08:15:09Z</time>
      </trkpt>
      <trkpt lat="44.36102" lon="4.38519">
        <ele>233.8</ele>
        <time>2015-07-29T08:15:18Z</time>
      </trkpt>
      <trkpt lat="44.3611" lon="4.38521">
        <ele>233.5</ele>
        <time>2015-07-29T08:15:25Z</time>
      </trkpt>
      <trkpt lat="44.36118" lon="4.3852">
        <ele>233.5</ele>
        <time>2015-07-29T08:15:32Z</time>
      </trkpt>
      <trkpt lat="44.36128" lon="4.38519">
        <ele>232.9</ele>
        <time>2015-07-29T08:15:45Z</time>
      </trkpt>
      <trkpt lat="44.36138" lon="4.38515">
        <ele>231.7</ele>
        <time>2015-07-29T08:15:59Z</time>
      </trkpt>
      <trkpt lat="44.36148" lon="4.38517">
        <ele>231.2</ele>
        <time>2015-07-29T08:16:07Z</time>
      </trkpt>
      <trkpt lat="44.36155" lon="4.38515">
        <ele>231.1</ele>
        <time>2015-07-29T08:16:14Z</time>
      </trkpt>
      <trkpt lat="44.36163" lon="4.38514">
        <ele>230.9</ele>
        <time>2015-07-29T08:16:21Z</time>
      </trkpt>
      <trkpt lat="44.3617" lon="4.38515">
        <ele>230.6</ele>
        <time>2015-07-29T08:16:26Z</time>
      </trkpt>
      <trkpt lat="44.36178" lon="4.38516">
        <ele>230</ele>
        <time>2015-07-29T08:16:32Z</time>
      </trkpt>
      <trkpt lat="44.36189" lon="4.38515">
        <ele>229.5</ele>
        <time>2015-07-29T08:16:43Z</time>
      </trkpt>
      <trkpt lat="44.36198" lon="4.38517">
        <ele>229</ele>
        <time>2015-07-29T08:16:49Z</time>
      </trkpt>
      <trkpt lat="44.36205" lon="4.38515">
        <ele>228.3</ele>
        <time>2015-07-29T08:16:57Z</time>
      </trkpt>
      <trkpt lat="44.36216" lon="4.3851">
        <ele>227.7</ele>
        <time>2015-07-29T08:17:09Z</time>
      </trkpt>
      <trkpt lat="44.36223" lon="4.3851">
        <ele>228.1</ele>
        <time>2015-07-29T08:17:17Z</time>
      </trkpt>
      <trkpt lat="44.36232" lon="4.38509">
        <ele>228.1</ele>
        <time>2015-07-29T08:17:23Z</time>
      </trkpt>
      <trkpt lat="44.36239" lon="4.3851">
        <ele>228.1</ele>
        <time>2015-07-29T08:17:28Z</time>
      </trkpt>
      <trkpt lat="44.36247" lon="4.3851">
        <ele>227.6</ele>
        <time>2015-07-29T08:17:35Z</time>
      </trkpt>
      <trkpt lat="44.36253" lon="4.38512">
        <ele>227.2</ele>
        <time>2015-07-29T08:17:40Z</time>
      </trkpt>
      <trkpt lat="44.36259" lon="4.38514">
        <ele>227.1</ele>
        <time>2015-07-29T08:17:44Z</time>
      </trkpt>
      <trkpt lat="44.36264" lon="4.38518">
        <ele>226.8</ele>
        <time>2015-07-29T08:17:49Z</time>
      </trkpt>
      <trkpt lat="44.36269" lon="4.38521">
        <ele>226.7</ele>
        <time>2015-07-29T08:17:55Z</time>
      </trkpt>
      <trkpt lat="44.36275" lon="4.38523">
        <ele>226.7</ele>
        <time>2015-07-29T08:18:00Z</time>
      </trkpt>
      <trkpt lat="44.3628" lon="4.38526">
        <ele>226.6</ele>
        <time>2015-07-29T08:18:05Z</time>
      </trkpt>
      <trkpt lat="44.36288" lon="4.38529">
        <ele>226.9</ele>
        <time>2015-07-29T08:18:12Z</time>
      </trkpt>
      <trkpt lat="44.36294" lon="4.38534">
        <ele>226.4</ele>
        <time>2015-07-29T08:18:20Z</time>
      </trkpt>
      <trkpt lat="44.363" lon="4.3854">
        <ele>226.1</ele>
        <time>2015-07-29T08:18:27Z</time>
      </trkpt>
      <trkpt lat="44.36305" lon="4.38546">
        <ele>225.9</ele>
        <time>2015-07-29T08:18:35Z</time>
      </trkpt>
      <trkpt lat="44.36312" lon="4.38551">
        <ele>225.4</ele>
        <time>2015-07-29T08:18:41Z</time>
      </trkpt>
      <trkpt lat="44.36319" lon="4.38557">
        <ele>224.8</ele>
        <time>2015-07-29T08:18:47Z</time>
      </trkpt>
      <trkpt lat="44.36323" lon="4.38565">
        <ele>224.4</ele>
        <time>2015-07-29T08:18:53Z</time>
      </trkpt>
      <trkpt lat="44.36327" lon="4.38575">
        <ele>223.7</ele>
        <time>2015-07-29T08:19:02Z</time>
      </trkpt>
      <trkpt lat="44.36332" lon="4.38583">
        <ele>223.3</ele>
        <time>2015-07-29T08:19:12Z</time>
      </trkpt>
      <trkpt lat="44.3634" lon="4.38585">
        <ele>223.1</ele>
        <time>2015-07-29T08:19:19Z</time>
      </trkpt>
      <trkpt lat="44.36346" lon="4.38584">
        <ele>222.9</ele>
        <time>2015-07-29T08:19:24Z</time>
      </trkpt>
      <trkpt lat="44.36353" lon="4.38582">
        <ele>222.9</ele>
        <time>2015-07-29T08:19:30Z</time>
      </trkpt>
      <trkpt lat="44.3636" lon="4.3858">
        <ele>222.5</ele>
        <time>2015-07-29T08:19:37Z</time>
      </trkpt>
      <trkpt lat="44.36368" lon="4.38579">
        <ele>222.1</ele>
        <time>2015-07-29T08:19:43Z</time>
      </trkpt>
      <trkpt lat="44.36375" lon="4.38577">
        <ele>221.4</ele>
        <time>2015-07-29T08:19:50Z</time>
      </trkpt>
      <trkpt lat="44.36383" lon="4.38575">
        <ele>220.1</ele>
        <time>2015-07-29T08:19:58Z</time>
      </trkpt>
      <trkpt lat="44.36391" lon="4.38575">
        <ele>218.7</ele>
        <time>2015-07-29T08:20:08Z</time>
      </trkpt>
      <trkpt lat="44.36398" lon="4.38572">
        <ele>217.9</ele>
        <time>2015-07-29T08:20:16Z</time>
      </trkpt>
      <trkpt lat="44.36409" lon="4.38567">
        <ele>217</ele>
        <time>2015-07-29T08:20:25Z</time>
      </trkpt>
      <trkpt lat="44.36417" lon="4.38565">
        <ele>216.3</ele>
        <time>2015-07-29T08:20:33Z</time>
      </trkpt>
      <trkpt lat="44.36426" lon="4.38564">
        <ele>215.7</ele>
        <time>2015-07-29T08:20:40Z</time>
      </trkpt>
      <trkpt lat="44.36433" lon="4.38564">
        <ele>215.5</ele>
        <time>2015-07-29T08:20:45Z</time>
      </trkpt>
      <trkpt lat="44.36442" lon="4.38565">
        <ele>216.2</ele>
        <time>2015-07-29T08:20:55Z</time>
      </trkpt>
      <trkpt lat="44.36449" lon="4.38564">
        <ele>216.3</ele>
        <time>2015-07-29T08:21:02Z</time>
      </trkpt>
      <trkpt lat="44.36458" lon="4.38562">
        <ele>216.4</ele>
        <time>2015-07-29T08:21:09Z</time>
      </trkpt>
      <trkpt lat="44.3647" lon="4.38559">
        <ele>216.1</ele>
        <time>2015-07-29T08:21:17Z</time>
      </trkpt>
      <trkpt lat="44.36478" lon="4.38558">
        <ele>215.8</ele>
        <time>2015-07-29T08:21:22Z</time>
      </trkpt>
      <trkpt lat="44.36485" lon="4.38555">
        <ele>216.4</ele>
        <time>2015-07-29T08:21:29Z</time>
      </trkpt>
      <trkpt lat="44.36492" lon="4.38551">
        <ele>216.1</ele>
        <time>2015-07-29T08:21:34Z</time>
      </trkpt>
      <trkpt lat="44.36498" lon="4.38546">
        <ele>215.9</ele>
        <time>2015-07-29T08:21:39Z</time>
      </trkpt>
      <trkpt lat="44.36504" lon="4.3854">
        <ele>215.6</ele>
        <time>2015-07-29T08:21:46Z</time>
      </trkpt>
      <trkpt lat="44.36512" lon="4.38536">
        <ele>214.9</ele>
        <time>2015-07-29T08:21:52Z</time>
      </trkpt>
      <trkpt lat="44.36517" lon="4.38537">
        <ele>214.4</ele>
        <time>2015-07-29T08:21:57Z</time>
      </trkpt>
      <trkpt lat="44.36524" lon="4.38536">
        <ele>214</ele>
        <time>2015-07-29T08:22:03Z</time>
      </trkpt>
      <trkpt lat="44.36529" lon="4.38534">
        <ele>213.6</ele>
        <time>2015-07-29T08:22:08Z</time>
      </trkpt>
      <trkpt lat="44.36536" lon="4.3853">
        <ele>213.3</ele>
        <time>2015-07-29T08:22:16Z</time>
      </trkpt>
      <trkpt lat="44.36544" lon="4.38526">
        <ele>213</ele>
        <time>2015-07-29T08:22:24Z</time>
      </trkpt>
      <trkpt lat="44.36554" lon="4.38518">
        <ele>211.8</ele>
        <time>2015-07-29T08:22:33Z</time>
      </trkpt>
      <trkpt lat="44.3656" lon="4.38511">
        <ele>211.2</ele>
        <time>2015-07-29T08:22:40Z</time>
      </trkpt>
      <trkpt lat="44.36565" lon="4.38507">
        <ele>210.8</ele>
        <time>2015-07-29T08:22:45Z</time>
      </trkpt>
      <trkpt lat="44.3657" lon="4.38503">
        <ele>210.6</ele>
        <time>2015-07-29T08:22:51Z</time>
      </trkpt>
      <trkpt lat="44.36577" lon="4.38495">
        <ele>210.6</ele>
        <time>2015-07-29T08:22:57Z</time>
      </trkpt>
      <trkpt lat="44.36581" lon="4.3849">
        <ele>210.5</ele>
        <time>2015-07-29T08:23:02Z</time>
      </trkpt>
      <trkpt lat="44.36585" lon="4.38483">
        <ele>210.1</ele>
        <time>2015-07-29T08:23:07Z</time>
      </trkpt>
      <trkpt lat="44.36587" lon="4.38473">
        <ele>210.3</ele>
        <time>2015-07-29T08:23:14Z</time>
      </trkpt>
      <trkpt lat="44.36592" lon="4.38465">
        <ele>210.2</ele>
        <time>2015-07-29T08:23:20Z</time>
      </trkpt>
      <trkpt lat="44.36597" lon="4.38458">
        <ele>209.9</ele>
        <time>2015-07-29T08:23:27Z</time>
      </trkpt>
      <trkpt lat="44.36603" lon="4.38452">
        <ele>209.7</ele>
        <time>2015-07-29T08:23:35Z</time>
      </trkpt>
      <trkpt lat="44.3661" lon="4.38447">
        <ele>209.7</ele>
        <time>2015-07-29T08:23:43Z</time>
      </trkpt>
      <trkpt lat="44.3662" lon="4.38448">
        <ele>209.4</ele>
        <time>2015-07-29T08:23:57Z</time>
      </trkpt>
      <trkpt lat="44.36628" lon="4.38448">
        <ele>209.4</ele>
        <time>2015-07-29T08:24:03Z</time>
      </trkpt>
      <trkpt lat="44.36636" lon="4.38449">
        <ele>209.2</ele>
        <time>2015-07-29T08:24:11Z</time>
      </trkpt>
      <trkpt lat="44.36644" lon="4.3845">
        <ele>209.3</ele>
        <time>2015-07-29T08:24:19Z</time>
      </trkpt>
      <trkpt lat="44.36651" lon="4.38452">
        <ele>209.6</ele>
        <time>2015-07-29T08:24:25Z</time>
      </trkpt>
      <trkpt lat="44.36656" lon="4.38452">
        <ele>210.3</ele>
        <time>2015-07-29T08:24:32Z</time>
      </trkpt>
      <trkpt lat="44.36662" lon="4.38453">
        <ele>211.7</ele>
        <time>2015-07-29T08:24:42Z</time>
      </trkpt>
      <trkpt lat="44.36669" lon="4.38454">
        <ele>212.6</ele>
        <time>2015-07-29T08:24:48Z</time>
      </trkpt>
      <trkpt lat="44.36677" lon="4.38455">
        <ele>213.6</ele>
        <time>2015-07-29T08:24:56Z</time>
      </trkpt>
      <trkpt lat="44.36684" lon="4.38454">
        <ele>214.2</ele>
        <time>2015-07-29T08:25:02Z</time>
      </trkpt>
      <trkpt lat="44.36692" lon="4.38451">
        <ele>215.2</ele>
        <time>2015-07-29T08:25:10Z</time>
      </trkpt>
      <trkpt lat="44.36699" lon="4.38448">
        <ele>215.5</ele>
        <time>2015-07-29T08:25:17Z</time>
      </trkpt>
      <trkpt lat="44.36705" lon="4.38445">
        <ele>215.9</ele>
        <time>2015-07-29T08:25:22Z</time>
      </trkpt>
      <trkpt lat="44.36712" lon="4.3844">
        <ele>217.1</ele>
        <time>2015-07-29T08:25:30Z</time>
      </trkpt>
      <trkpt lat="44.36721" lon="4.38439">
        <ele>219.2</ele>
        <time>2015-07-29T08:25:42Z</time>
      </trkpt>
      <trkpt lat="44.36728" lon="4.38438">
        <ele>219.8</ele>
        <time>2015-07-29T08:25:48Z</time>
      </trkpt>
      <trkpt lat="44.36733" lon="4.38438">
        <ele>220.5</ele>
        <time>2015-07-29T08:25:55Z</time>
      </trkpt>
      <trkpt lat="44.36739" lon="4.38442">
        <ele>221.6</ele>
        <time>2015-07-29T08:26:02Z</time>
      </trkpt>
      <trkpt lat="44.36744" lon="4.38445">
        <ele>222.6</ele>
        <time>2015-07-29T08:26:08Z</time>
      </trkpt>
      <trkpt lat="44.36748" lon="4.38446">
        <ele>223.3</ele>
        <time>2015-07-29T08:26:39Z</time>
      </trkpt>
      <trkpt lat="44.36754" lon="4.38447">
        <ele>224</ele>
        <time>2015-07-29T08:27:21Z</time>
      </trkpt>
      <trkpt lat="44.36759" lon="4.3845">
        <ele>225</ele>
        <time>2015-07-29T08:27:31Z</time>
      </trkpt>
      <trkpt lat="44.36765" lon="4.3845">
        <ele>225.5</ele>
        <time>2015-07-29T08:27:37Z</time>
      </trkpt>
      <trkpt lat="44.36773" lon="4.38451">
        <ele>226.3</ele>
        <time>2015-07-29T08:27:44Z</time>
      </trkpt>
      <trkpt lat="44.36778" lon="4.38452">
        <ele>226.9</ele>
        <time>2015-07-29T08:27:50Z</time>
      </trkpt>
      <trkpt lat="44.36784" lon="4.38456">
        <ele>227.7</ele>
        <time>2015-07-29T08:27:57Z</time>
      </trkpt>
      <trkpt lat="44.36789" lon="4.38455">
        <ele>228.5</ele>
        <time>2015-07-29T08:28:05Z</time>
      </trkpt>
      <trkpt lat="44.36794" lon="4.38458">
        <ele>228.9</ele>
        <time>2015-07-29T08:28:10Z</time>
      </trkpt>
      <trkpt lat="44.36801" lon="4.38462">
        <ele>229.7</ele>
        <time>2015-07-29T08:28:17Z</time>
      </trkpt>
      <trkpt lat="44.3681" lon="4.38463">
        <ele>230.5</ele>
        <time>2015-07-29T08:28:28Z</time>
      </trkpt>
      <trkpt lat="44.36816" lon="4.38466">
        <ele>230.9</ele>
        <time>2015-07-29T08:28:35Z</time>
      </trkpt>
      <trkpt lat="44.36823" lon="4.38467">
        <ele>231.1</ele>
        <time>2015-07-29T08:28:44Z</time>
      </trkpt>
      <trkpt lat="44.36829" lon="4.38471">
        <ele>232</ele>
        <time>2015-07-29T08:28:53Z</time>
      </trkpt>
      <trkpt lat="44.36835" lon="4.38473">
        <ele>232.6</ele>
        <time>2015-07-29T08:29:00Z</time>
      </trkpt>
      <trkpt lat="44.36842" lon="4.38477">
        <ele>234.1</ele>
        <time>2015-07-29T08:29:12Z</time>
      </trkpt>
      <trkpt lat="44.36849" lon="4.38481">
        <ele>234.9</ele>
        <time>2015-07-29T08:29:21Z</time>
      </trkpt>
      <trkpt lat="44.36855" lon="4.38484">
        <ele>235.9</ele>
        <time>2015-07-29T08:29:28Z</time>
      </trkpt>
      <trkpt lat="44.36862" lon="4.38486">
        <ele>236.9</ele>
        <time>2015-07-29T08:29:38Z</time>
      </trkpt>
      <trkpt lat="44.36867" lon="4.38489">
        <ele>238.2</ele>
        <time>2015-07-29T08:29:46Z</time>
      </trkpt>
      <trkpt lat="44.36873" lon="4.38491">
        <ele>238.6</ele>
        <time>2015-07-29T08:29:51Z</time>
      </trkpt>
      <trkpt lat="44.36878" lon="4.38495">
        <ele>238.9</ele>
        <time>2015-07-29T08:29:58Z</time>
      </trkpt>
      <trkpt lat="44.36887" lon="4.38502">
        <ele>239.5</ele>
        <time>2015-07-29T08:30:13Z</time>
      </trkpt>
      <trkpt lat="44.36892" lon="4.38509">
        <ele>239.8</ele>
        <time>2015-07-29T08:30:24Z</time>
      </trkpt>
      <trkpt lat="44.36897" lon="4.38513">
        <ele>239.8</ele>
        <time>2015-07-29T08:30:29Z</time>
      </trkpt>
      <trkpt lat="44.36905" lon="4.38515">
        <ele>240.2</ele>
        <time>2015-07-29T08:30:36Z</time>
      </trkpt>
      <trkpt lat="44.3691" lon="4.3851">
        <ele>240.7</ele>
        <time>2015-07-29T08:30:43Z</time>
      </trkpt>
      <trkpt lat="44.36914" lon="4.38502">
        <ele>241.9</ele>
        <time>2015-07-29T08:30:54Z</time>
      </trkpt>
      <trkpt lat="44.36919" lon="4.38497">
        <ele>242.4</ele>
        <time>2015-07-29T08:30:59Z</time>
      </trkpt>
      <trkpt lat="44.36923" lon="4.38489">
        <ele>243</ele>
        <time>2015-07-29T08:31:05Z</time>
      </trkpt>
      <trkpt lat="44.36927" lon="4.38479">
        <ele>243.9</ele>
        <time>2015-07-29T08:31:12Z</time>
      </trkpt>
      <trkpt lat="44.3693" lon="4.38472">
        <ele>244.6</ele>
        <time>2015-07-29T08:31:18Z</time>
      </trkpt>
      <trkpt lat="44.36936" lon="4.38466">
        <ele>245.3</ele>
        <time>2015-07-29T08:31:28Z</time>
      </trkpt>
      <trkpt lat="44.36942" lon="4.38462">
        <ele>245.3</ele>
        <time>2015-07-29T08:31:33Z</time>
      </trkpt>
      <trkpt lat="44.36948" lon="4.38457">
        <ele>245.5</ele>
        <time>2015-07-29T08:31:39Z</time>
      </trkpt>
      <trkpt lat="44.36956" lon="4.38453">
        <ele>245.8</ele>
        <time>2015-07-29T08:31:47Z</time>
      </trkpt>
      <trkpt lat="44.36961" lon="4.3844">
        <ele>246.3</ele>
        <time>2015-07-29T08:31:56Z</time>
      </trkpt>
      <trkpt lat="44.36968" lon="4.38434">
        <ele>246.1</ele>
        <time>2015-07-29T08:32:04Z</time>
      </trkpt>
      <trkpt lat="44.36972" lon="4.38423">
        <ele>246</ele>
        <time>2015-07-29T08:32:15Z</time>
      </trkpt>
      <trkpt lat="44.36976" lon="4.38414">
        <ele>246.3</ele>
        <time>2015-07-29T08:32:22Z</time>
      </trkpt>
      <trkpt lat="44.36977" lon="4.38403">
        <ele>246.4</ele>
        <time>2015-07-29T08:32:27Z</time>
      </trkpt>
      <trkpt lat="44.36981" lon="4.38396">
        <ele>246.2</ele>
        <time>2015-07-29T08:32:31Z</time>
      </trkpt>
      <trkpt lat="44.36986" lon="4.38386">
        <ele>246.3</ele>
        <time>2015-07-29T08:32:39Z</time>
      </trkpt>
      <trkpt lat="44.36989" lon="4.38377">
        <ele>246.4</ele>
        <time>2015-07-29T08:32:45Z</time>
      </trkpt>
      <trkpt lat="44.36988" lon="4.38369">
        <ele>246.4</ele>
        <time>2015-07-29T08:32:49Z</time>
      </trkpt>
      <trkpt lat="44.36991" lon="4.38359">
        <ele>246.7</ele>
        <time>2015-07-29T08:32:56Z</time>
      </trkpt>
      <trkpt lat="44.36996" lon="4.38346">
        <ele>246.8</ele>
        <time>2015-07-29T08:33:05Z</time>
      </trkpt>
      <trkpt lat="44.36999" lon="4.38334">
        <ele>246.7</ele>
        <time>2015-07-29T08:33:13Z</time>
      </trkpt>
      <trkpt lat="44.37003" lon="4.38323">
        <ele>246.8</ele>
        <time>2015-07-29T08:33:18Z</time>
      </trkpt>
      <trkpt lat="44.37007" lon="4.38315">
        <ele>246.9</ele>
        <time>2015-07-29T08:33:24Z</time>
      </trkpt>
      <trkpt lat="44.37014" lon="4.38301">
        <ele>247.1</ele>
        <time>2015-07-29T08:33:35Z</time>
      </trkpt>
      <trkpt lat="44.37017" lon="4.38293">
        <ele>247.1</ele>
        <time>2015-07-29T08:33:41Z</time>
      </trkpt>
      <trkpt lat="44.37023" lon="4.38277">
        <ele>247</ele>
        <time>2015-07-29T08:33:53Z</time>
      </trkpt>
      <trkpt lat="44.37027" lon="4.38268">
        <ele>247.2</ele>
        <time>2015-07-29T08:34:00Z</time>
      </trkpt>
      <trkpt lat="44.37031" lon="4.38259">
        <ele>247.6</ele>
        <time>2015-07-29T08:34:06Z</time>
      </trkpt>
      <trkpt lat="44.37035" lon="4.3825">
        <ele>247.5</ele>
        <time>2015-07-29T08:34:12Z</time>
      </trkpt>
      <trkpt lat="44.37043" lon="4.38238">
        <ele>247.3</ele>
        <time>2015-07-29T08:34:25Z</time>
      </trkpt>
      <trkpt lat="44.3705" lon="4.38227">
        <ele>246.6</ele>
        <time>2015-07-29T08:34:33Z</time>
      </trkpt>
      <trkpt lat="44.37055" lon="4.38219">
        <ele>246.3</ele>
        <time>2015-07-29T08:34:39Z</time>
      </trkpt>
      <trkpt lat="44.37059" lon="4.38211">
        <ele>246.6</ele>
        <time>2015-07-29T08:34:45Z</time>
      </trkpt>
      <trkpt lat="44.37063" lon="4.38201">
        <ele>247.5</ele>
        <time>2015-07-29T08:34:52Z</time>
      </trkpt>
      <trkpt lat="44.37065" lon="4.38192">
        <ele>247.7</ele>
        <time>2015-07-29T08:35:01Z</time>
      </trkpt>
      <trkpt lat="44.37067" lon="4.38184">
        <ele>247.4</ele>
        <time>2015-07-29T08:35:05Z</time>
      </trkpt>
      <trkpt lat="44.37069" lon="4.38174">
        <ele>246.7</ele>
        <time>2015-07-29T08:35:12Z</time>
      </trkpt>
      <trkpt lat="44.37074" lon="4.38165">
        <ele>246.1</ele>
        <time>2015-07-29T08:35:20Z</time>
      </trkpt>
      <trkpt lat="44.37076" lon="4.38153">
        <ele>245.3</ele>
        <time>2015-07-29T08:35:27Z</time>
      </trkpt>
      <trkpt lat="44.37077" lon="4.38145">
        <ele>244.9</ele>
        <time>2015-07-29T08:35:32Z</time>
      </trkpt>
      <trkpt lat="44.37079" lon="4.38138">
        <ele>244.4</ele>
        <time>2015-07-29T08:35:37Z</time>
      </trkpt>
      <trkpt lat="44.37079" lon="4.38122">
        <ele>243.8</ele>
        <time>2015-07-29T08:35:48Z</time>
      </trkpt>
      <trkpt lat="44.37079" lon="4.38113">
        <ele>242.9</ele>
        <time>2015-07-29T08:35:54Z</time>
      </trkpt>
      <trkpt lat="44.37079" lon="4.38105">
        <ele>242.3</ele>
        <time>2015-07-29T08:35:59Z</time>
      </trkpt>
      <trkpt lat="44.37078" lon="4.38095">
        <ele>241.7</ele>
        <time>2015-07-29T08:36:07Z</time>
      </trkpt>
      <trkpt lat="44.37081" lon="4.38085">
        <ele>240.8</ele>
        <time>2015-07-29T08:36:14Z</time>
      </trkpt>
      <trkpt lat="44.37082" lon="4.38077">
        <ele>240.3</ele>
        <time>2015-07-29T08:36:18Z</time>
      </trkpt>
      <trkpt lat="44.37088" lon="4.3807">
        <ele>239.7</ele>
        <time>2015-07-29T08:36:25Z</time>
      </trkpt>
      <trkpt lat="44.37093" lon="4.38066">
        <ele>239.3</ele>
        <time>2015-07-29T08:36:30Z</time>
      </trkpt>
      <trkpt lat="44.371" lon="4.38064">
        <ele>238.9</ele>
        <time>2015-07-29T08:36:38Z</time>
      </trkpt>
      <trkpt lat="44.37109" lon="4.38063">
        <ele>237.9</ele>
        <time>2015-07-29T08:36:48Z</time>
      </trkpt>
      <trkpt lat="44.37115" lon="4.38058">
        <ele>236.7</ele>
        <time>2015-07-29T08:36:55Z</time>
      </trkpt>
      <trkpt lat="44.37122" lon="4.38052">
        <ele>235.8</ele>
        <time>2015-07-29T08:37:04Z</time>
      </trkpt>
      <trkpt lat="44.37128" lon="4.38048">
        <ele>235.2</ele>
        <time>2015-07-29T08:37:11Z</time>
      </trkpt>
      <trkpt lat="44.37135" lon="4.38042">
        <ele>234.4</ele>
        <time>2015-07-29T08:37:19Z</time>
      </trkpt>
      <trkpt lat="44.37141" lon="4.38035">
        <ele>233.5</ele>
        <time>2015-07-29T08:37:26Z</time>
      </trkpt>
      <trkpt lat="44.37145" lon="4.3803">
        <ele>233.1</ele>
        <time>2015-07-29T08:37:31Z</time>
      </trkpt>
      <trkpt lat="44.37148" lon="4.3802">
        <ele>232.7</ele>
        <time>2015-07-29T08:37:39Z</time>
      </trkpt>
      <trkpt lat="44.37151" lon="4.3801">
        <ele>231.3</ele>
        <time>2015-07-29T08:37:47Z</time>
      </trkpt>
      <trkpt lat="44.37154" lon="4.37996">
        <ele>228</ele>
        <time>2015-07-29T08:37:59Z</time>
      </trkpt>
      <trkpt lat="44.37157" lon="4.37987">
        <ele>226.2</ele>
        <time>2015-07-29T08:38:07Z</time>
      </trkpt>
      <trkpt lat="44.37161" lon="4.37979">
        <ele>225.5</ele>
        <time>2015-07-29T08:38:12Z</time>
      </trkpt>
      <trkpt lat="44.37165" lon="4.37973">
        <ele>224.9</ele>
        <time>2015-07-29T08:38:18Z</time>
      </trkpt>
      <trkpt lat="44.37167" lon="4.37966">
        <ele>224.2</ele>
        <time>2015-07-29T08:38:24Z</time>
      </trkpt>
      <trkpt lat="44.37169" lon="4.37959">
        <ele>223.7</ele>
        <time>2015-07-29T08:38:32Z</time>
      </trkpt>
      <trkpt lat="44.3717" lon="4.37948">
        <ele>223.1</ele>
        <time>2015-07-29T08:38:39Z</time>
      </trkpt>
      <trkpt lat="44.37169" lon="4.3794">
        <ele>222.7</ele>
        <time>2015-07-29T08:38:45Z</time>
      </trkpt>
      <trkpt lat="44.37166" lon="4.37932">
        <ele>222.1</ele>
        <time>2015-07-29T08:38:52Z</time>
      </trkpt>
      <trkpt lat="44.37169" lon="4.3792">
        <ele>220.7</ele>
        <time>2015-07-29T08:39:03Z</time>
      </trkpt>
      <trkpt lat="44.37175" lon="4.37921">
        <ele>219.8</ele>
        <time>2015-07-29T08:39:27Z</time>
      </trkpt>
      <trkpt lat="44.3718" lon="4.37913">
        <ele>219.5</ele>
        <time>2015-07-29T08:39:42Z</time>
      </trkpt>
      <trkpt lat="44.37188" lon="4.37912">
        <ele>218.9</ele>
        <time>2015-07-29T08:39:48Z</time>
      </trkpt>
      <trkpt lat="44.37194" lon="4.37911">
        <ele>218.1</ele>
        <time>2015-07-29T08:39:52Z</time>
      </trkpt>
      <trkpt lat="44.37202" lon="4.37908">
        <ele>216.8</ele>
        <time>2015-07-29T08:39:59Z</time>
      </trkpt>
      <trkpt lat="44.37207" lon="4.37903">
        <ele>216.1</ele>
        <time>2015-07-29T08:40:05Z</time>
      </trkpt>
      <trkpt lat="44.37212" lon="4.37897">
        <ele>215.5</ele>
        <time>2015-07-29T08:40:11Z</time>
      </trkpt>
      <trkpt lat="44.37215" lon="4.37889">
        <ele>215.2</ele>
        <time>2015-07-29T08:40:16Z</time>
      </trkpt>
      <trkpt lat="44.37218" lon="4.37882">
        <ele>215.1</ele>
        <time>2015-07-29T08:40:22Z</time>
      </trkpt>
      <trkpt lat="44.37223" lon="4.37875">
        <ele>214.4</ele>
        <time>2015-07-29T08:40:30Z</time>
      </trkpt>
      <trkpt lat="44.37226" lon="4.37867">
        <ele>214.4</ele>
        <time>2015-07-29T08:40:36Z</time>
      </trkpt>
      <trkpt lat="44.37229" lon="4.3786">
        <ele>214.4</ele>
        <time>2015-07-29T08:40:42Z</time>
      </trkpt>
      <trkpt lat="44.37235" lon="4.37854">
        <ele>214.7</ele>
        <time>2015-07-29T08:40:50Z</time>
      </trkpt>
      <trkpt lat="44.37237" lon="4.37846">
        <ele>214.7</ele>
        <time>2015-07-29T08:40:55Z</time>
      </trkpt>
      <trkpt lat="44.37241" lon="4.37838">
        <ele>214.5</ele>
        <time>2015-07-29T08:41:01Z</time>
      </trkpt>
      <trkpt lat="44.37243" lon="4.37831">
        <ele>213.9</ele>
        <time>2015-07-29T08:41:06Z</time>
      </trkpt>
      <trkpt lat="44.37244" lon="4.37824">
        <ele>213.5</ele>
        <time>2015-07-29T08:41:10Z</time>
      </trkpt>
      <trkpt lat="44.37247" lon="4.37817">
        <ele>213</ele>
        <time>2015-07-29T08:41:15Z</time>
      </trkpt>
      <trkpt lat="44.3725" lon="4.37809">
        <ele>212.1</ele>
        <time>2015-07-29T08:41:21Z</time>
      </trkpt>
      <trkpt lat="44.37252" lon="4.37801">
        <ele>211.4</ele>
        <time>2015-07-29T08:41:27Z</time>
      </trkpt>
      <trkpt lat="44.37256" lon="4.37796">
        <ele>210.5</ele>
        <time>2015-07-29T08:41:34Z</time>
      </trkpt>
      <trkpt lat="44.37259" lon="4.37785">
        <ele>208.4</ele>
        <time>2015-07-29T08:41:48Z</time>
      </trkpt>
      <trkpt lat="44.37263" lon="4.37775">
        <ele>207.4</ele>
        <time>2015-07-29T08:41:54Z</time>
      </trkpt>
      <trkpt lat="44.37267" lon="4.37767">
        <ele>207</ele>
        <time>2015-07-29T08:42:01Z</time>
      </trkpt>
      <trkpt lat="44.37271" lon="4.3776">
        <ele>206.6</ele>
        <time>2015-07-29T08:42:07Z</time>
      </trkpt>
      <trkpt lat="44.37274" lon="4.37754">
        <ele>206.4</ele>
        <time>2015-07-29T08:42:10Z</time>
      </trkpt>
      <trkpt lat="44.37278" lon="4.37748">
        <ele>206</ele>
        <time>2015-07-29T08:42:15Z</time>
      </trkpt>
      <trkpt lat="44.37282" lon="4.37739">
        <ele>206</ele>
        <time>2015-07-29T08:42:23Z</time>
      </trkpt>
      <trkpt lat="44.37288" lon="4.37731">
        <ele>205.5</ele>
        <time>2015-07-29T08:42:30Z</time>
      </trkpt>
      <trkpt lat="44.37292" lon="4.37723">
        <ele>205</ele>
        <time>2015-07-29T08:42:36Z</time>
      </trkpt>
      <trkpt lat="44.37296" lon="4.37717">
        <ele>204.5</ele>
        <time>2015-07-29T08:42:40Z</time>
      </trkpt>
      <trkpt lat="44.37301" lon="4.37709">
        <ele>204.4</ele>
        <time>2015-07-29T08:42:47Z</time>
      </trkpt>
      <trkpt lat="44.37306" lon="4.37703">
        <ele>204.5</ele>
        <time>2015-07-29T08:42:52Z</time>
      </trkpt>
      <trkpt lat="44.3731" lon="4.37698">
        <ele>204.9</ele>
        <time>2015-07-29T08:42:58Z</time>
      </trkpt>
      <trkpt lat="44.37316" lon="4.37691">
        <ele>205.2</ele>
        <time>2015-07-29T08:43:04Z</time>
      </trkpt>
      <trkpt lat="44.37321" lon="4.37683">
        <ele>205.1</ele>
        <time>2015-07-29T08:43:10Z</time>
      </trkpt>
      <trkpt lat="44.37328" lon="4.37675">
        <ele>205.2</ele>
        <time>2015-07-29T08:43:19Z</time>
      </trkpt>
      <trkpt lat="44.37332" lon="4.37667">
        <ele>205.4</ele>
        <time>2015-07-29T08:43:25Z</time>
      </trkpt>
      <trkpt lat="44.37338" lon="4.3766">
        <ele>205.7</ele>
        <time>2015-07-29T08:43:33Z</time>
      </trkpt>
      <trkpt lat="44.37343" lon="4.37652">
        <ele>206.1</ele>
        <time>2015-07-29T08:43:40Z</time>
      </trkpt>
      <trkpt lat="44.37347" lon="4.37643">
        <ele>206.8</ele>
        <time>2015-07-29T08:43:46Z</time>
      </trkpt>
      <trkpt lat="44.3735" lon="4.37635">
        <ele>207.3</ele>
        <time>2015-07-29T08:43:51Z</time>
      </trkpt>
      <trkpt lat="44.37354" lon="4.37625">
        <ele>207.4</ele>
        <time>2015-07-29T08:43:57Z</time>
      </trkpt>
      <trkpt lat="44.37358" lon="4.37617">
        <ele>207.6</ele>
        <time>2015-07-29T08:44:04Z</time>
      </trkpt>
      <trkpt lat="44.37362" lon="4.37612">
        <ele>207.7</ele>
        <time>2015-07-29T08:44:08Z</time>
      </trkpt>
      <trkpt lat="44.37366" lon="4.37605">
        <ele>207.9</ele>
        <time>2015-07-29T08:44:12Z</time>
      </trkpt>
      <trkpt lat="44.37369" lon="4.37599">
        <ele>208</ele>
        <time>2015-07-29T08:44:16Z</time>
      </trkpt>
      <trkpt lat="44.37374" lon="4.37594">
        <ele>207.8</ele>
        <time>2015-07-29T08:44:20Z</time>
      </trkpt>
      <trkpt lat="44.3738" lon="4.3759">
        <ele>207.7</ele>
        <time>2015-07-29T08:44:26Z</time>
      </trkpt>
      <trkpt lat="44.37384" lon="4.37587">
        <ele>207.4</ele>
        <time>2015-07-29T08:44:31Z</time>
      </trkpt>
      <trkpt lat="44.37392" lon="4.37583">
        <ele>206.7</ele>
        <time>2015-07-29T08:44:37Z</time>
      </trkpt>
      <trkpt lat="44.374" lon="4.37577">
        <ele>206.9</ele>
        <time>2015-07-29T08:44:45Z</time>
      </trkpt>
      <trkpt lat="44.37406" lon="4.37571">
        <ele>207.4</ele>
        <time>2015-07-29T08:44:52Z</time>
      </trkpt>
      <trkpt lat="44.37412" lon="4.37565">
        <ele>207.8</ele>
        <time>2015-07-29T08:45:00Z</time>
      </trkpt>
      <trkpt lat="44.37417" lon="4.37557">
        <ele>207.5</ele>
        <time>2015-07-29T08:45:11Z</time>
      </trkpt>
      <trkpt lat="44.37423" lon="4.3755">
        <ele>206.9</ele>
        <time>2015-07-29T08:45:17Z</time>
      </trkpt>
      <trkpt lat="44.37427" lon="4.3754">
        <ele>206.3</ele>
        <time>2015-07-29T08:45:24Z</time>
      </trkpt>
      <trkpt lat="44.37433" lon="4.37534">
        <ele>205.7</ele>
        <time>2015-07-29T08:45:33Z</time>
      </trkpt>
      <trkpt lat="44.37436" lon="4.37521">
        <ele>205.2</ele>
        <time>2015-07-29T08:45:45Z</time>
      </trkpt>
      <trkpt lat="44.37442" lon="4.37507">
        <ele>203</ele>
        <time>2015-07-29T08:45:57Z</time>
      </trkpt>
      <trkpt lat="44.3745" lon="4.37497">
        <ele>201.2</ele>
        <time>2015-07-29T08:46:06Z</time>
      </trkpt>
      <trkpt lat="44.37455" lon="4.3749">
        <ele>199.3</ele>
        <time>2015-07-29T08:46:15Z</time>
      </trkpt>
      <trkpt lat="44.3746" lon="4.37479">
        <ele>197.9</ele>
        <time>2015-07-29T08:46:22Z</time>
      </trkpt>
      <trkpt lat="44.37465" lon="4.37471">
        <ele>196.9</ele>
        <time>2015-07-29T08:46:28Z</time>
      </trkpt>
      <trkpt lat="44.37468" lon="4.37462">
        <ele>195.6</ele>
        <time>2015-07-29T08:46:38Z</time>
      </trkpt>
      <trkpt lat="44.37473" lon="4.37452">
        <ele>194.5</ele>
        <time>2015-07-29T08:46:46Z</time>
      </trkpt>
      <trkpt lat="44.37478" lon="4.37446">
        <ele>194.5</ele>
        <time>2015-07-29T08:46:53Z</time>
      </trkpt>
      <trkpt lat="44.37485" lon="4.37443">
        <ele>194.3</ele>
        <time>2015-07-29T08:47:01Z</time>
      </trkpt>
      <trkpt lat="44.37489" lon="4.37449">
        <ele>193.5</ele>
        <time>2015-07-29T08:47:24Z</time>
      </trkpt>
      <trkpt lat="44.37494" lon="4.37446">
        <ele>192.9</ele>
        <time>2015-07-29T08:47:36Z</time>
      </trkpt>
      <trkpt lat="44.375" lon="4.37448">
        <ele>192</ele>
        <time>2015-07-29T08:47:44Z</time>
      </trkpt>
      <trkpt lat="44.37507" lon="4.37451">
        <ele>191.2</ele>
        <time>2015-07-29T08:47:51Z</time>
      </trkpt>
      <trkpt lat="44.37515" lon="4.37454">
        <ele>190.5</ele>
        <time>2015-07-29T08:47:58Z</time>
      </trkpt>
      <trkpt lat="44.37521" lon="4.3746">
        <ele>189.8</ele>
        <time>2015-07-29T08:48:13Z</time>
      </trkpt>
      <trkpt lat="44.37528" lon="4.37463">
        <ele>189.2</ele>
        <time>2015-07-29T08:48:22Z</time>
      </trkpt>
      <trkpt lat="44.37538" lon="4.37467">
        <ele>189</ele>
        <time>2015-07-29T08:48:31Z</time>
      </trkpt>
      <trkpt lat="44.37545" lon="4.37474">
        <ele>188.2</ele>
        <time>2015-07-29T08:48:38Z</time>
      </trkpt>
      <trkpt lat="44.37553" lon="4.37473">
        <ele>187.4</ele>
        <time>2015-07-29T08:48:45Z</time>
      </trkpt>
      <trkpt lat="44.37564" lon="4.37476">
        <ele>187</ele>
        <time>2015-07-29T08:48:57Z</time>
      </trkpt>
      <trkpt lat="44.37573" lon="4.37476">
        <ele>186.2</ele>
        <time>2015-07-29T08:49:05Z</time>
      </trkpt>
      <trkpt lat="44.37581" lon="4.37475">
        <ele>185.7</ele>
        <time>2015-07-29T08:49:11Z</time>
      </trkpt>
      <trkpt lat="44.37593" lon="4.37475">
        <ele>184.9</ele>
        <time>2015-07-29T08:49:21Z</time>
      </trkpt>
      <trkpt lat="44.376" lon="4.37476">
        <ele>185.1</ele>
        <time>2015-07-29T08:49:28Z</time>
      </trkpt>
      <trkpt lat="44.37608" lon="4.37479">
        <ele>184.9</ele>
        <time>2015-07-29T08:49:36Z</time>
      </trkpt>
      <trkpt lat="44.37615" lon="4.37481">
        <ele>184.2</ele>
        <time>2015-07-29T08:49:44Z</time>
      </trkpt>
      <trkpt lat="44.37621" lon="4.37481">
        <ele>183.9</ele>
        <time>2015-07-29T08:49:49Z</time>
      </trkpt>
      <trkpt lat="44.37629" lon="4.37482">
        <ele>183.1</ele>
        <time>2015-07-29T08:49:56Z</time>
      </trkpt>
      <trkpt lat="44.37636" lon="4.37486">
        <ele>181.7</ele>
        <time>2015-07-29T08:50:04Z</time>
      </trkpt>
      <trkpt lat="44.37643" lon="4.37489">
        <ele>181</ele>
        <time>2015-07-29T08:50:10Z</time>
      </trkpt>
      <trkpt lat="44.37649" lon="4.37486">
        <ele>180.1</ele>
        <time>2015-07-29T08:50:14Z</time>
      </trkpt>
      <trkpt lat="44.37657" lon="4.37484">
        <ele>179.2</ele>
        <time>2015-07-29T08:50:19Z</time>
      </trkpt>
      <trkpt lat="44.37664" lon="4.37483">
        <ele>178.5</ele>
        <time>2015-07-29T08:50:25Z</time>
      </trkpt>
      <trkpt lat="44.37671" lon="4.37479">
        <ele>177.3</ele>
        <time>2015-07-29T08:50:31Z</time>
      </trkpt>
      <trkpt lat="44.37678" lon="4.37483">
        <ele>175.7</ele>
        <time>2015-07-29T08:50:59Z</time>
      </trkpt>
      <trkpt lat="44.37685" lon="4.37482">
        <ele>173.9</ele>
        <time>2015-07-29T08:51:28Z</time>
      </trkpt>
      <trkpt lat="44.37691" lon="4.37488">
        <ele>173.1</ele>
        <time>2015-07-29T08:51:34Z</time>
      </trkpt>
      <trkpt lat="44.37699" lon="4.3749">
        <ele>171.9</ele>
        <time>2015-07-29T08:51:41Z</time>
      </trkpt>
      <trkpt lat="44.37706" lon="4.37494">
        <ele>171.2</ele>
        <time>2015-07-29T08:51:46Z</time>
      </trkpt>
      <trkpt lat="44.37711" lon="4.37497">
        <ele>170.8</ele>
        <time>2015-07-29T08:51:50Z</time>
      </trkpt>
      <trkpt lat="44.37716" lon="4.375">
        <ele>170.5</ele>
        <time>2015-07-29T08:51:54Z</time>
      </trkpt>
      <trkpt lat="44.37722" lon="4.37503">
        <ele>170.4</ele>
        <time>2015-07-29T08:51:59Z</time>
      </trkpt>
      <trkpt lat="44.37729" lon="4.37504">
        <ele>170.1</ele>
        <time>2015-07-29T08:52:04Z</time>
      </trkpt>
      <trkpt lat="44.37737" lon="4.37506">
        <ele>169.7</ele>
        <time>2015-07-29T08:52:10Z</time>
      </trkpt>
      <trkpt lat="44.37743" lon="4.37509">
        <ele>169.5</ele>
        <time>2015-07-29T08:52:14Z</time>
      </trkpt>
      <trkpt lat="44.37749" lon="4.37511">
        <ele>169.5</ele>
        <time>2015-07-29T08:52:18Z</time>
      </trkpt>
      <trkpt lat="44.37756" lon="4.37514">
        <ele>169.1</ele>
        <time>2015-07-29T08:52:25Z</time>
      </trkpt>
      <trkpt lat="44.37763" lon="4.37516">
        <ele>169.2</ele>
        <time>2015-07-29T08:52:30Z</time>
      </trkpt>
      <trkpt lat="44.37767" lon="4.37519">
        <ele>169.3</ele>
        <time>2015-07-29T08:52:35Z</time>
      </trkpt>
      <trkpt lat="44.37775" lon="4.37523">
        <ele>169.2</ele>
        <time>2015-07-29T08:52:43Z</time>
      </trkpt>
      <trkpt lat="44.37783" lon="4.37526">
        <ele>168.9</ele>
        <time>2015-07-29T08:52:49Z</time>
      </trkpt>
      <trkpt lat="44.3779" lon="4.3753">
        <ele>168.5</ele>
        <time>2015-07-29T08:52:56Z</time>
      </trkpt>
      <trkpt lat="44.37798" lon="4.37534">
        <ele>168.1</ele>
        <time>2015-07-29T08:53:02Z</time>
      </trkpt>
      <trkpt lat="44.37804" lon="4.37537">
        <ele>167.7</ele>
        <time>2015-07-29T08:53:07Z</time>
      </trkpt>
      <trkpt lat="44.37809" lon="4.37541">
        <ele>167.7</ele>
        <time>2015-07-29T08:53:11Z</time>
      </trkpt>
      <trkpt lat="44.37814" lon="4.37549">
        <ele>167.7</ele>
        <time>2015-07-29T08:53:17Z</time>
      </trkpt>
      <trkpt lat="44.37817" lon="4.37557">
        <ele>167.9</ele>
        <time>2015-07-29T08:53:22Z</time>
      </trkpt>
      <trkpt lat="44.3782" lon="4.37565">
        <ele>168.1</ele>
        <time>2015-07-29T08:53:27Z</time>
      </trkpt>
      <trkpt lat="44.37824" lon="4.37573">
        <ele>168.2</ele>
        <time>2015-07-29T08:53:34Z</time>
      </trkpt>
      <trkpt lat="44.37829" lon="4.37578">
        <ele>167.9</ele>
        <time>2015-07-29T08:53:39Z</time>
      </trkpt>
      <trkpt lat="44.37833" lon="4.37583">
        <ele>167.7</ele>
        <time>2015-07-29T08:53:43Z</time>
      </trkpt>
      <trkpt lat="44.37839" lon="4.37587">
        <ele>167.2</ele>
        <time>2015-07-29T08:53:48Z</time>
      </trkpt>
      <trkpt lat="44.37844" lon="4.37591">
        <ele>166.9</ele>
        <time>2015-07-29T08:53:54Z</time>
      </trkpt>
      <trkpt lat="44.3785" lon="4.37596">
        <ele>166.3</ele>
        <time>2015-07-29T08:54:03Z</time>
      </trkpt>
      <trkpt lat="44.37856" lon="4.37601">
        <ele>166.3</ele>
        <time>2015-07-29T08:54:11Z</time>
      </trkpt>
      <trkpt lat="44.37863" lon="4.37604">
        <ele>167.5</ele>
        <time>2015-07-29T08:54:23Z</time>
      </trkpt>
      <trkpt lat="44.3787" lon="4.37609">
        <ele>167.4</ele>
        <time>2015-07-29T08:54:31Z</time>
      </trkpt>
      <trkpt lat="44.37877" lon="4.37613">
        <ele>167.4</ele>
        <time>2015-07-29T08:54:36Z</time>
      </trkpt>
      <trkpt lat="44.37885" lon="4.37616">
        <ele>167.4</ele>
        <time>2015-07-29T08:54:44Z</time>
      </trkpt>
      <trkpt lat="44.3789" lon="4.37618">
        <ele>167.8</ele>
        <time>2015-07-29T08:54:49Z</time>
      </trkpt>
      <trkpt lat="44.37898" lon="4.37616">
        <ele>168.3</ele>
        <time>2015-07-29T08:54:55Z</time>
      </trkpt>
      <trkpt lat="44.37903" lon="4.37609">
        <ele>169.2</ele>
        <time>2015-07-29T08:55:02Z</time>
      </trkpt>
      <trkpt lat="44.37908" lon="4.37599">
        <ele>168.8</ele>
        <time>2015-07-29T08:55:08Z</time>
      </trkpt>
      <trkpt lat="44.37911" lon="4.3759">
        <ele>167.7</ele>
        <time>2015-07-29T08:55:15Z</time>
      </trkpt>
      <trkpt lat="44.37915" lon="4.37581">
        <ele>167.4</ele>
        <time>2015-07-29T08:55:20Z</time>
      </trkpt>
      <trkpt lat="44.37918" lon="4.37572">
        <ele>167</ele>
        <time>2015-07-29T08:55:26Z</time>
      </trkpt>
      <trkpt lat="44.37923" lon="4.37563">
        <ele>166.9</ele>
        <time>2015-07-29T08:55:34Z</time>
      </trkpt>
      <trkpt lat="44.37929" lon="4.37558">
        <ele>166.5</ele>
        <time>2015-07-29T08:55:42Z</time>
      </trkpt>
      <trkpt lat="44.37937" lon="4.37553">
        <ele>166.5</ele>
        <time>2015-07-29T08:55:50Z</time>
      </trkpt>
      <trkpt lat="44.37944" lon="4.37547">
        <ele>167.5</ele>
        <time>2015-07-29T08:55:57Z</time>
      </trkpt>
      <trkpt lat="44.37953" lon="4.37544">
        <ele>168</ele>
        <time>2015-07-29T08:56:03Z</time>
      </trkpt>
      <trkpt lat="44.37964" lon="4.37537">
        <ele>167.7</ele>
        <time>2015-07-29T08:56:12Z</time>
      </trkpt>
      <trkpt lat="44.37971" lon="4.3753">
        <ele>166.3</ele>
        <time>2015-07-29T08:56:19Z</time>
      </trkpt>
      <trkpt lat="44.37977" lon="4.37523">
        <ele>165.4</ele>
        <time>2015-07-29T08:56:23Z</time>
      </trkpt>
      <trkpt lat="44.3798" lon="4.37515">
        <ele>164.2</ele>
        <time>2015-07-29T08:56:29Z</time>
      </trkpt>
      <trkpt lat="44.37978" lon="4.37508">
        <ele>162.8</ele>
        <time>2015-07-29T08:56:35Z</time>
      </trkpt>
      <trkpt lat="44.37977" lon="4.37497">
        <ele>161.9</ele>
        <time>2015-07-29T08:56:41Z</time>
      </trkpt>
      <trkpt lat="44.37979" lon="4.37487">
        <ele>160.5</ele>
        <time>2015-07-29T08:56:48Z</time>
      </trkpt>
      <trkpt lat="44.37984" lon="4.3748">
        <ele>159.1</ele>
        <time>2015-07-29T08:56:54Z</time>
      </trkpt>
      <trkpt lat="44.37991" lon="4.37472">
        <ele>158.1</ele>
        <time>2015-07-29T08:57:01Z</time>
      </trkpt>
      <trkpt lat="44.37997" lon="4.37463">
        <ele>156.8</ele>
        <time>2015-07-29T08:57:07Z</time>
      </trkpt>
      <trkpt lat="44.38001" lon="4.37453">
        <ele>155.2</ele>
        <time>2015-07-29T08:57:13Z</time>
      </trkpt>
      <trkpt lat="44.3801" lon="4.37439">
        <ele>152.3</ele>
        <time>2015-07-29T08:57:28Z</time>
      </trkpt>
      <trkpt lat="44.38014" lon="4.37435">
        <ele>151.6</ele>
        <time>2015-07-29T08:57:33Z</time>
      </trkpt>
      <trkpt lat="44.38022" lon="4.37431">
        <ele>152.2</ele>
        <time>2015-07-29T08:57:42Z</time>
      </trkpt>
      <trkpt lat="44.38027" lon="4.37434">
        <ele>152.7</ele>
        <time>2015-07-29T08:57:47Z</time>
      </trkpt>
      <trkpt lat="44.38033" lon="4.37441">
        <ele>152.9</ele>
        <time>2015-07-29T08:57:53Z</time>
      </trkpt>
      <trkpt lat="44.38039" lon="4.37447">
        <ele>153.5</ele>
        <time>2015-07-29T08:57:59Z</time>
      </trkpt>
      <trkpt lat="44.38046" lon="4.37455">
        <ele>154.2</ele>
        <time>2015-07-29T08:58:06Z</time>
      </trkpt>
      <trkpt lat="44.3805" lon="4.3746">
        <ele>154.9</ele>
        <time>2015-07-29T08:58:11Z</time>
      </trkpt>
      <trkpt lat="44.38057" lon="4.37466">
        <ele>156.2</ele>
        <time>2015-07-29T08:58:18Z</time>
      </trkpt>
      <trkpt lat="44.38064" lon="4.37473">
        <ele>158</ele>
        <time>2015-07-29T08:58:27Z</time>
      </trkpt>
      <trkpt lat="44.38072" lon="4.37481">
        <ele>158.2</ele>
        <time>2015-07-29T08:58:35Z</time>
      </trkpt>
      <trkpt lat="44.38077" lon="4.37486">
        <ele>158.7</ele>
        <time>2015-07-29T08:58:40Z</time>
      </trkpt>
      <trkpt lat="44.38083" lon="4.37487">
        <ele>158.9</ele>
        <time>2015-07-29T08:58:45Z</time>
      </trkpt>
      <trkpt lat="44.38088" lon="4.37492">
        <ele>159.2</ele>
        <time>2015-07-29T08:58:50Z</time>
      </trkpt>
      <trkpt lat="44.38094" lon="4.37496">
        <ele>159.7</ele>
        <time>2015-07-29T08:58:56Z</time>
      </trkpt>
      <trkpt lat="44.38102" lon="4.37498">
        <ele>160.1</ele>
        <time>2015-07-29T08:59:00Z</time>
      </trkpt>
      <trkpt lat="44.38107" lon="4.375">
        <ele>160.5</ele>
        <time>2015-07-29T08:59:04Z</time>
      </trkpt>
      <trkpt lat="44.38113" lon="4.37501">
        <ele>160.5</ele>
        <time>2015-07-29T08:59:11Z</time>
      </trkpt>
      <trkpt lat="44.3812" lon="4.37509">
        <ele>161.5</ele>
        <time>2015-07-29T08:59:29Z</time>
      </trkpt>
      <trkpt lat="44.38128" lon="4.37511">
        <ele>162.2</ele>
        <time>2015-07-29T08:59:36Z</time>
      </trkpt>
      <trkpt lat="44.38136" lon="4.37511">
        <ele>162.7</ele>
        <time>2015-07-29T08:59:46Z</time>
      </trkpt>
      <trkpt lat="44.38143" lon="4.37508">
        <ele>162.9</ele>
        <time>2015-07-29T08:59:53Z</time>
      </trkpt>
      <trkpt lat="44.38147" lon="4.37501">
        <ele>163.5</ele>
        <time>2015-07-29T08:59:59Z</time>
      </trkpt>
      <trkpt lat="44.38151" lon="4.37493">
        <ele>164.2</ele>
        <time>2015-07-29T09:00:04Z</time>
      </trkpt>
      <trkpt lat="44.38154" lon="4.37486">
        <ele>164.7</ele>
        <time>2015-07-29T09:00:09Z</time>
      </trkpt>
      <trkpt lat="44.38158" lon="4.37479">
        <ele>165.3</ele>
        <time>2015-07-29T09:00:14Z</time>
      </trkpt>
      <trkpt lat="44.38163" lon="4.37472">
        <ele>166.7</ele>
        <time>2015-07-29T09:00:21Z</time>
      </trkpt>
      <trkpt lat="44.38169" lon="4.37466">
        <ele>167.5</ele>
        <time>2015-07-29T09:00:27Z</time>
      </trkpt>
      <trkpt lat="44.38176" lon="4.37466">
        <ele>168</ele>
        <time>2015-07-29T09:00:34Z</time>
      </trkpt>
      <trkpt lat="44.38181" lon="4.37469">
        <ele>168.3</ele>
        <time>2015-07-29T09:00:39Z</time>
      </trkpt>
      <trkpt lat="44.38186" lon="4.37475">
        <ele>168.7</ele>
        <time>2015-07-29T09:00:45Z</time>
      </trkpt>
      <trkpt lat="44.38191" lon="4.37484">
        <ele>168.5</ele>
        <time>2015-07-29T09:00:55Z</time>
      </trkpt>
      <trkpt lat="44.38198" lon="4.37488">
        <ele>168.6</ele>
        <time>2015-07-29T09:00:59Z</time>
      </trkpt>
      <trkpt lat="44.38208" lon="4.37493">
        <ele>167.6</ele>
        <time>2015-07-29T09:01:06Z</time>
      </trkpt>
      <trkpt lat="44.38217" lon="4.37504">
        <ele>166.3</ele>
        <time>2015-07-29T09:01:17Z</time>
      </trkpt>
      <trkpt lat="44.38224" lon="4.37509">
        <ele>165.5</ele>
        <time>2015-07-29T09:01:23Z</time>
      </trkpt>
      <trkpt lat="44.38232" lon="4.37514">
        <ele>165</ele>
        <time>2015-07-29T09:01:28Z</time>
      </trkpt>
      <trkpt lat="44.38237" lon="4.37519">
        <ele>165</ele>
        <time>2015-07-29T09:01:34Z</time>
      </trkpt>
      <trkpt lat="44.38242" lon="4.37523">
        <ele>165.3</ele>
        <time>2015-07-29T09:01:38Z</time>
      </trkpt>
      <trkpt lat="44.38247" lon="4.37528">
        <ele>165.2</ele>
        <time>2015-07-29T09:01:43Z</time>
      </trkpt>
      <trkpt lat="44.38253" lon="4.3753">
        <ele>164.8</ele>
        <time>2015-07-29T09:01:47Z</time>
      </trkpt>
      <trkpt lat="44.38259" lon="4.3753">
        <ele>164.4</ele>
        <time>2015-07-29T09:01:52Z</time>
      </trkpt>
      <trkpt lat="44.38268" lon="4.37533">
        <ele>163.8</ele>
        <time>2015-07-29T09:02:01Z</time>
      </trkpt>
      <trkpt lat="44.38274" lon="4.37535">
        <ele>163.1</ele>
        <time>2015-07-29T09:02:06Z</time>
      </trkpt>
      <trkpt lat="44.38278" lon="4.3754">
        <ele>162.3</ele>
        <time>2015-07-29T09:02:11Z</time>
      </trkpt>
      <trkpt lat="44.38283" lon="4.37546">
        <ele>161.7</ele>
        <time>2015-07-29T09:02:15Z</time>
      </trkpt>
      <trkpt lat="44.38286" lon="4.37551">
        <ele>161.8</ele>
        <time>2015-07-29T09:02:19Z</time>
      </trkpt>
      <trkpt lat="44.38289" lon="4.37558">
        <ele>161.8</ele>
        <time>2015-07-29T09:02:23Z</time>
      </trkpt>
      <trkpt lat="44.38293" lon="4.37566">
        <ele>161.7</ele>
        <time>2015-07-29T09:02:29Z</time>
      </trkpt>
      <trkpt lat="44.38296" lon="4.37575">
        <ele>161.3</ele>
        <time>2015-07-29T09:02:34Z</time>
      </trkpt>
      <trkpt lat="44.38299" lon="4.37583">
        <ele>161.1</ele>
        <time>2015-07-29T09:02:40Z</time>
      </trkpt>
      <trkpt lat="44.383" lon="4.37592">
        <ele>160.9</ele>
        <time>2015-07-29T09:02:46Z</time>
      </trkpt>
      <trkpt lat="44.38305" lon="4.376">
        <ele>161.1</ele>
        <time>2015-07-29T09:02:51Z</time>
      </trkpt>
      <trkpt lat="44.38308" lon="4.37608">
        <ele>161.3</ele>
        <time>2015-07-29T09:02:56Z</time>
      </trkpt>
      <trkpt lat="44.38313" lon="4.37616">
        <ele>161.4</ele>
        <time>2015-07-29T09:03:02Z</time>
      </trkpt>
      <trkpt lat="44.38317" lon="4.37626">
        <ele>161.4</ele>
        <time>2015-07-29T09:03:08Z</time>
      </trkpt>
      <trkpt lat="44.38319" lon="4.37637">
        <ele>161.6</ele>
        <time>2015-07-29T09:03:14Z</time>
      </trkpt>
      <trkpt lat="44.38321" lon="4.37647">
        <ele>161.9</ele>
        <time>2015-07-29T09:03:21Z</time>
      </trkpt>
      <trkpt lat="44.38326" lon="4.37654">
        <ele>161.7</ele>
        <time>2015-07-29T09:03:28Z</time>
      </trkpt>
      <trkpt lat="44.38333" lon="4.37658">
        <ele>161.6</ele>
        <time>2015-07-29T09:03:33Z</time>
      </trkpt>
      <trkpt lat="44.38338" lon="4.37663">
        <ele>161.6</ele>
        <time>2015-07-29T09:03:39Z</time>
      </trkpt>
      <trkpt lat="44.38343" lon="4.37668">
        <ele>161.5</ele>
        <time>2015-07-29T09:03:45Z</time>
      </trkpt>
      <trkpt lat="44.38348" lon="4.37673">
        <ele>161.5</ele>
        <time>2015-07-29T09:03:52Z</time>
      </trkpt>
      <trkpt lat="44.38353" lon="4.37678">
        <ele>161.6</ele>
        <time>2015-07-29T09:03:58Z</time>
      </trkpt>
      <trkpt lat="44.38358" lon="4.37685">
        <ele>161.8</ele>
        <time>2015-07-29T09:04:03Z</time>
      </trkpt>
      <trkpt lat="44.38364" lon="4.3769">
        <ele>161.6</ele>
        <time>2015-07-29T09:04:10Z</time>
      </trkpt>
      <trkpt lat="44.38372" lon="4.37695">
        <ele>162.2</ele>
        <time>2015-07-29T09:04:18Z</time>
      </trkpt>
      <trkpt lat="44.38379" lon="4.37701">
        <ele>163.2</ele>
        <time>2015-07-29T09:04:26Z</time>
      </trkpt>
      <trkpt lat="44.38384" lon="4.37707">
        <ele>164.5</ele>
        <time>2015-07-29T09:04:33Z</time>
      </trkpt>
      <trkpt lat="44.38393" lon="4.37712">
        <ele>165.6</ele>
        <time>2015-07-29T09:04:40Z</time>
      </trkpt>
      <trkpt lat="44.38399" lon="4.37716">
        <ele>165.8</ele>
        <time>2015-07-29T09:04:44Z</time>
      </trkpt>
      <trkpt lat="44.38403" lon="4.37721">
        <ele>166.2</ele>
        <time>2015-07-29T09:04:50Z</time>
      </trkpt>
      <trkpt lat="44.3841" lon="4.37726">
        <ele>165.9</ele>
        <time>2015-07-29T09:04:56Z</time>
      </trkpt>
      <trkpt lat="44.38415" lon="4.3773">
        <ele>165.7</ele>
        <time>2015-07-29T09:05:00Z</time>
      </trkpt>
      <trkpt lat="44.38423" lon="4.37736">
        <ele>165</ele>
        <time>2015-07-29T09:05:10Z</time>
      </trkpt>
      <trkpt lat="44.38431" lon="4.37742">
        <ele>164.6</ele>
        <time>2015-07-29T09:05:17Z</time>
      </trkpt>
      <trkpt lat="44.38437" lon="4.37746">
        <ele>164.6</ele>
        <time>2015-07-29T09:05:23Z</time>
      </trkpt>
      <trkpt lat="44.38442" lon="4.3775">
        <ele>164.7</ele>
        <time>2015-07-29T09:05:27Z</time>
      </trkpt>
      <trkpt lat="44.38448" lon="4.37756">
        <ele>164.6</ele>
        <time>2015-07-29T09:05:33Z</time>
      </trkpt>
      <trkpt lat="44.38454" lon="4.37761">
        <ele>164.3</ele>
        <time>2015-07-29T09:05:38Z</time>
      </trkpt>
      <trkpt lat="44.3846" lon="4.37766">
        <ele>164.1</ele>
        <time>2015-07-29T09:05:43Z</time>
      </trkpt>
      <trkpt lat="44.38466" lon="4.37769">
        <ele>164.3</ele>
        <time>2015-07-29T09:05:48Z</time>
      </trkpt>
      <trkpt lat="44.38472" lon="4.37771">
        <ele>164.4</ele>
        <time>2015-07-29T09:05:54Z</time>
      </trkpt>
      <trkpt lat="44.38475" lon="4.37773">
        <ele>164.7</ele>
        <time>2015-07-29T09:05:59Z</time>
      </trkpt>
      <trkpt lat="44.38481" lon="4.37777">
        <ele>164.9</ele>
        <time>2015-07-29T09:06:03Z</time>
      </trkpt>
      <trkpt lat="44.38487" lon="4.37781">
        <ele>165.3</ele>
        <time>2015-07-29T09:06:08Z</time>
      </trkpt>
      <trkpt lat="44.38494" lon="4.37786">
        <ele>165.9</ele>
        <time>2015-07-29T09:06:14Z</time>
      </trkpt>
      <trkpt lat="44.38499" lon="4.37792">
        <ele>166.3</ele>
        <time>2015-07-29T09:06:19Z</time>
      </trkpt>
      <trkpt lat="44.38504" lon="4.37796">
        <ele>167</ele>
        <time>2015-07-29T09:06:24Z</time>
      </trkpt>
      <trkpt lat="44.38509" lon="4.37802">
        <ele>167.8</ele>
        <time>2015-07-29T09:06:30Z</time>
      </trkpt>
      <trkpt lat="44.38511" lon="4.37806">
        <ele>168.2</ele>
        <time>2015-07-29T09:06:33Z</time>
      </trkpt>
      <trkpt lat="44.38514" lon="4.37812">
        <ele>168.6</ele>
        <time>2015-07-29T09:06:38Z</time>
      </trkpt>
      <trkpt lat="44.38517" lon="4.37819">
        <ele>169</ele>
        <time>2015-07-29T09:06:44Z</time>
      </trkpt>
      <trkpt lat="44.38521" lon="4.37827">
        <ele>169</ele>
        <time>2015-07-29T09:06:49Z</time>
      </trkpt>
      <trkpt lat="44.38524" lon="4.37835">
        <ele>168.9</ele>
        <time>2015-07-29T09:06:54Z</time>
      </trkpt>
      <trkpt lat="44.38528" lon="4.3784">
        <ele>169</ele>
        <time>2015-07-29T09:06:59Z</time>
      </trkpt>
      <trkpt lat="44.38532" lon="4.37848">
        <ele>169.3</ele>
        <time>2015-07-29T09:07:05Z</time>
      </trkpt>
      <trkpt lat="44.38535" lon="4.37856">
        <ele>169.1</ele>
        <time>2015-07-29T09:07:11Z</time>
      </trkpt>
      <trkpt lat="44.38541" lon="4.37864">
        <ele>169.1</ele>
        <time>2015-07-29T09:07:18Z</time>
      </trkpt>
      <trkpt lat="44.38545" lon="4.37873">
        <ele>168.6</ele>
        <time>2015-07-29T09:07:25Z</time>
      </trkpt>
      <trkpt lat="44.38551" lon="4.3788">
        <ele>168.7</ele>
        <time>2015-07-29T09:07:30Z</time>
      </trkpt>
      <trkpt lat="44.38554" lon="4.37887">
        <ele>168.8</ele>
        <time>2015-07-29T09:07:35Z</time>
      </trkpt>
      <trkpt lat="44.38557" lon="4.37894">
        <ele>168.6</ele>
        <time>2015-07-29T09:07:40Z</time>
      </trkpt>
      <trkpt lat="44.38562" lon="4.379">
        <ele>168.2</ele>
        <time>2015-07-29T09:07:45Z</time>
      </trkpt>
      <trkpt lat="44.38568" lon="4.37908">
        <ele>167.9</ele>
        <time>2015-07-29T09:07:51Z</time>
      </trkpt>
      <trkpt lat="44.38572" lon="4.37915">
        <ele>168</ele>
        <time>2015-07-29T09:07:55Z</time>
      </trkpt>
      <trkpt lat="44.38575" lon="4.37922">
        <ele>168.2</ele>
        <time>2015-07-29T09:08:00Z</time>
      </trkpt>
      <trkpt lat="44.38579" lon="4.37932">
        <ele>168.2</ele>
        <time>2015-07-29T09:08:07Z</time>
      </trkpt>
      <trkpt lat="44.38583" lon="4.37938">
        <ele>168.3</ele>
        <time>2015-07-29T09:08:12Z</time>
      </trkpt>
      <trkpt lat="44.38587" lon="4.37943">
        <ele>168.6</ele>
        <time>2015-07-29T09:08:16Z</time>
      </trkpt>
      <trkpt lat="44.38591" lon="4.37948">
        <ele>168.7</ele>
        <time>2015-07-29T09:08:21Z</time>
      </trkpt>
      <trkpt lat="44.38596" lon="4.37952">
        <ele>168.7</ele>
        <time>2015-07-29T09:08:27Z</time>
      </trkpt>
      <trkpt lat="44.38602" lon="4.37957">
        <ele>168.5</ele>
        <time>2015-07-29T09:08:34Z</time>
      </trkpt>
      <trkpt lat="44.38608" lon="4.37963">
        <ele>168.4</ele>
        <time>2015-07-29T09:08:40Z</time>
      </trkpt>
      <trkpt lat="44.38613" lon="4.37967">
        <ele>168.3</ele>
        <time>2015-07-29T09:08:44Z</time>
      </trkpt>
      <trkpt lat="44.38619" lon="4.37972">
        <ele>168.5</ele>
        <time>2015-07-29T09:08:49Z</time>
      </trkpt>
      <trkpt lat="44.38625" lon="4.37978">
        <ele>168.6</ele>
        <time>2015-07-29T09:08:53Z</time>
      </trkpt>
      <trkpt lat="44.38629" lon="4.37983">
        <ele>169</ele>
        <time>2015-07-29T09:08:57Z</time>
      </trkpt>
      <trkpt lat="44.38634" lon="4.37988">
        <ele>169.3</ele>
        <time>2015-07-29T09:09:01Z</time>
      </trkpt>
      <trkpt lat="44.38638" lon="4.37992">
        <ele>169.8</ele>
        <time>2015-07-29T09:09:07Z</time>
      </trkpt>
      <trkpt lat="44.38641" lon="4.37998">
        <ele>170</ele>
        <time>2015-07-29T09:09:15Z</time>
      </trkpt>
      <trkpt lat="44.38646" lon="4.38003">
        <ele>169.9</ele>
        <time>2015-07-29T09:09:21Z</time>
      </trkpt>
      <trkpt lat="44.38651" lon="4.38008">
        <ele>169.5</ele>
        <time>2015-07-29T09:09:26Z</time>
      </trkpt>
      <trkpt lat="44.38658" lon="4.38013">
        <ele>169.2</ele>
        <time>2015-07-29T09:09:31Z</time>
      </trkpt>
      <trkpt lat="44.38663" lon="4.38019">
        <ele>169.4</ele>
        <time>2015-07-29T09:09:35Z</time>
      </trkpt>
      <trkpt lat="44.38669" lon="4.38023">
        <ele>169.7</ele>
        <time>2015-07-29T09:09:40Z</time>
      </trkpt>
      <trkpt lat="44.38675" lon="4.38026">
        <ele>169.8</ele>
        <time>2015-07-29T09:09:44Z</time>
      </trkpt>
      <trkpt lat="44.38681" lon="4.38029">
        <ele>169.9</ele>
        <time>2015-07-29T09:09:50Z</time>
      </trkpt>
      <trkpt lat="44.38687" lon="4.38034">
        <ele>170.2</ele>
        <time>2015-07-29T09:09:56Z</time>
      </trkpt>
      <trkpt lat="44.38693" lon="4.38038">
        <ele>170.4</ele>
        <time>2015-07-29T09:10:03Z</time>
      </trkpt>
      <trkpt lat="44.38699" lon="4.38041">
        <ele>170.5</ele>
        <time>2015-07-29T09:10:07Z</time>
      </trkpt>
      <trkpt lat="44.38704" lon="4.38045">
        <ele>170.8</ele>
        <time>2015-07-29T09:10:11Z</time>
      </trkpt>
      <trkpt lat="44.3871" lon="4.38047">
        <ele>171.3</ele>
        <time>2015-07-29T09:10:16Z</time>
      </trkpt>
      <trkpt lat="44.38716" lon="4.38051">
        <ele>171.5</ele>
        <time>2015-07-29T09:10:20Z</time>
      </trkpt>
      <trkpt lat="44.38722" lon="4.38053">
        <ele>171.9</ele>
        <time>2015-07-29T09:10:25Z</time>
      </trkpt>
      <trkpt lat="44.38729" lon="4.38056">
        <ele>172.1</ele>
        <time>2015-07-29T09:10:30Z</time>
      </trkpt>
      <trkpt lat="44.38734" lon="4.38059">
        <ele>172.1</ele>
        <time>2015-07-29T09:10:35Z</time>
      </trkpt>
      <trkpt lat="44.38738" lon="4.38061">
        <ele>172.1</ele>
        <time>2015-07-29T09:10:38Z</time>
      </trkpt>
      <trkpt lat="44.38743" lon="4.38064">
        <ele>172.1</ele>
        <time>2015-07-29T09:10:43Z</time>
      </trkpt>
      <trkpt lat="44.38749" lon="4.38067">
        <ele>172.3</ele>
        <time>2015-07-29T09:10:48Z</time>
      </trkpt>
      <trkpt lat="44.38755" lon="4.38069">
        <ele>172.5</ele>
        <time>2015-07-29T09:10:52Z</time>
      </trkpt>
      <trkpt lat="44.38762" lon="4.38072">
        <ele>172.8</ele>
        <time>2015-07-29T09:10:58Z</time>
      </trkpt>
      <trkpt lat="44.38768" lon="4.38075">
        <ele>173</ele>
        <time>2015-07-29T09:11:02Z</time>
      </trkpt>
      <trkpt lat="44.38774" lon="4.38078">
        <ele>173.5</ele>
        <time>2015-07-29T09:11:08Z</time>
      </trkpt>
      <trkpt lat="44.3878" lon="4.38081">
        <ele>173.9</ele>
        <time>2015-07-29T09:11:12Z</time>
      </trkpt>
      <trkpt lat="44.38786" lon="4.38083">
        <ele>174.5</ele>
        <time>2015-07-29T09:11:17Z</time>
      </trkpt>
      <trkpt lat="44.38792" lon="4.38084">
        <ele>174.9</ele>
        <time>2015-07-29T09:11:22Z</time>
      </trkpt>
      <trkpt lat="44.38798" lon="4.38085">
        <ele>175.5</ele>
        <time>2015-07-29T09:11:27Z</time>
      </trkpt>
      <trkpt lat="44.38807" lon="4.38086">
        <ele>176.3</ele>
        <time>2015-07-29T09:11:33Z</time>
      </trkpt>
      <trkpt lat="44.38813" lon="4.38087">
        <ele>176.6</ele>
        <time>2015-07-29T09:11:37Z</time>
      </trkpt>
      <trkpt lat="44.38819" lon="4.38088">
        <ele>176.8</ele>
        <time>2015-07-29T09:11:41Z</time>
      </trkpt>
      <trkpt lat="44.3883" lon="4.38089">
        <ele>174.2</ele>
        <time>2015-07-29T09:11:57Z</time>
      </trkpt>
      <trkpt lat="44.38842" lon="4.38091">
        <ele>172.9</ele>
        <time>2015-07-29T09:12:05Z</time>
      </trkpt>
      <trkpt lat="44.3885" lon="4.38092">
        <ele>171.3</ele>
        <time>2015-07-29T09:12:12Z</time>
      </trkpt>
      <trkpt lat="44.38858" lon="4.38095">
        <ele>170.2</ele>
        <time>2015-07-29T09:12:17Z</time>
      </trkpt>
      <trkpt lat="44.38865" lon="4.38096">
        <ele>169</ele>
        <time>2015-07-29T09:12:22Z</time>
      </trkpt>
      <trkpt lat="44.38873" lon="4.381">
        <ele>168.2</ele>
        <time>2015-07-29T09:12:28Z</time>
      </trkpt>
      <trkpt lat="44.38878" lon="4.38101">
        <ele>168.1</ele>
        <time>2015-07-29T09:12:33Z</time>
      </trkpt>
      <trkpt lat="44.38885" lon="4.38105">
        <ele>168.2</ele>
        <time>2015-07-29T09:12:40Z</time>
      </trkpt>
      <trkpt lat="44.3889" lon="4.38107">
        <ele>168</ele>
        <time>2015-07-29T09:12:46Z</time>
      </trkpt>
      <trkpt lat="44.38894" lon="4.38105">
        <ele>168</ele>
        <time>2015-07-29T09:12:56Z</time>
      </trkpt>
      <trkpt lat="44.38889" lon="4.381">
        <ele>168.7</ele>
        <time>2015-07-29T09:13:05Z</time>
      </trkpt>
      <trkpt lat="44.38885" lon="4.38092">
        <ele>168.9</ele>
        <time>2015-07-29T09:13:14Z</time>
      </trkpt>
      <trkpt lat="44.38882" lon="4.38085">
        <ele>169.3</ele>
        <time>2015-07-29T09:13:19Z</time>
      </trkpt>
      <trkpt lat="44.38879" lon="4.38078">
        <ele>170</ele>
        <time>2015-07-29T09:13:24Z</time>
      </trkpt>
      <trkpt lat="44.38876" lon="4.38071">
        <ele>170.8</ele>
        <time>2015-07-29T09:13:29Z</time>
      </trkpt>
      <trkpt lat="44.38873" lon="4.38056">
        <ele>171.1</ele>
        <time>2015-07-29T09:13:37Z</time>
      </trkpt>
      <trkpt lat="44.3887" lon="4.38046">
        <ele>170</ele>
        <time>2015-07-29T09:13:43Z</time>
      </trkpt>
      <trkpt lat="44.38868" lon="4.38037">
        <ele>168.6</ele>
        <time>2015-07-29T09:13:48Z</time>
      </trkpt>
      <trkpt lat="44.38864" lon="4.38032">
        <ele>167</ele>
        <time>2015-07-29T09:13:54Z</time>
      </trkpt>
      <trkpt lat="44.38859" lon="4.38026">
        <ele>166</ele>
        <time>2015-07-29T09:13:59Z</time>
      </trkpt>
      <trkpt lat="44.38853" lon="4.38021">
        <ele>165.8</ele>
        <time>2015-07-29T09:14:04Z</time>
      </trkpt>
      <trkpt lat="44.38847" lon="4.38015">
        <ele>166.1</ele>
        <time>2015-07-29T09:14:10Z</time>
      </trkpt>
      <trkpt lat="44.38843" lon="4.38009">
        <ele>166</ele>
        <time>2015-07-29T09:14:17Z</time>
      </trkpt>
      <trkpt lat="44.38836" lon="4.38008">
        <ele>165.6</ele>
        <time>2015-07-29T09:14:22Z</time>
      </trkpt>
      <trkpt lat="44.38829" lon="4.38005">
        <ele>165.5</ele>
        <time>2015-07-29T09:14:26Z</time>
      </trkpt>
      <trkpt lat="44.38825" lon="4.38001">
        <ele>165.3</ele>
        <time>2015-07-29T09:14:31Z</time>
      </trkpt>
      <trkpt lat="44.38818" lon="4.37997">
        <ele>164.5</ele>
        <time>2015-07-29T09:14:38Z</time>
      </trkpt>
      <trkpt lat="44.38812" lon="4.37996">
        <ele>164.2</ele>
        <time>2015-07-29T09:14:42Z</time>
      </trkpt>
      <trkpt lat="44.38806" lon="4.37996">
        <ele>163.9</ele>
        <time>2015-07-29T09:14:48Z</time>
      </trkpt>
      <trkpt lat="44.38801" lon="4.37991">
        <ele>163.9</ele>
        <time>2015-07-29T09:14:54Z</time>
      </trkpt>
      <trkpt lat="44.38795" lon="4.37989">
        <ele>163.9</ele>
        <time>2015-07-29T09:14:59Z</time>
      </trkpt>
      <trkpt lat="44.38788" lon="4.37987">
        <ele>163.7</ele>
        <time>2015-07-29T09:15:04Z</time>
      </trkpt>
      <trkpt lat="44.38781" lon="4.37986">
        <ele>163.4</ele>
        <time>2015-07-29T09:15:09Z</time>
      </trkpt>
      <trkpt lat="44.38775" lon="4.37991">
        <ele>163.4</ele>
        <time>2015-07-29T09:15:15Z</time>
      </trkpt>
      <trkpt lat="44.3877" lon="4.37998">
        <ele>163.4</ele>
        <time>2015-07-29T09:15:20Z</time>
      </trkpt>
      <trkpt lat="44.38768" lon="4.38003">
        <ele>163.7</ele>
        <time>2015-07-29T09:15:24Z</time>
      </trkpt>
      <trkpt lat="44.38766" lon="4.3801">
        <ele>163.8</ele>
        <time>2015-07-29T09:15:28Z</time>
      </trkpt>
      <trkpt lat="44.38763" lon="4.38017">
        <ele>164</ele>
        <time>2015-07-29T09:15:32Z</time>
      </trkpt>
      <trkpt lat="44.38762" lon="4.38023">
        <ele>163.9</ele>
        <time>2015-07-29T09:15:36Z</time>
      </trkpt>
      <trkpt lat="44.38758" lon="4.38031">
        <ele>164</ele>
        <time>2015-07-29T09:15:42Z</time>
      </trkpt>
      <trkpt lat="44.38752" lon="4.38033">
        <ele>164.5</ele>
        <time>2015-07-29T09:15:49Z</time>
      </trkpt>
      <trkpt lat="44.38748" lon="4.38032">
        <ele>164.5</ele>
        <time>2015-07-29T09:15:52Z</time>
      </trkpt>
      <trkpt lat="44.38742" lon="4.38028">
        <ele>164.8</ele>
        <time>2015-07-29T09:15:58Z</time>
      </trkpt>
      <trkpt lat="44.38735" lon="4.38025">
        <ele>165.4</ele>
        <time>2015-07-29T09:16:04Z</time>
      </trkpt>
      <trkpt lat="44.38727" lon="4.3802">
        <ele>165.9</ele>
        <time>2015-07-29T09:16:09Z</time>
      </trkpt>
      <trkpt lat="44.38722" lon="4.38015">
        <ele>166.4</ele>
        <time>2015-07-29T09:16:14Z</time>
      </trkpt>
      <trkpt lat="44.38715" lon="4.38009">
        <ele>166.7</ele>
        <time>2015-07-29T09:16:23Z</time>
      </trkpt>
      <trkpt lat="44.3871" lon="4.38005">
        <ele>166.7</ele>
        <time>2015-07-29T09:16:27Z</time>
      </trkpt>
      <trkpt lat="44.38704" lon="4.37999">
        <ele>166.9</ele>
        <time>2015-07-29T09:16:32Z</time>
      </trkpt>
      <trkpt lat="44.38701" lon="4.37996">
        <ele>167.1</ele>
        <time>2015-07-29T09:16:35Z</time>
      </trkpt>
      <trkpt lat="44.38694" lon="4.37992">
        <ele>167.4</ele>
        <time>2015-07-29T09:16:41Z</time>
      </trkpt>
      <trkpt lat="44.38686" lon="4.37996">
        <ele>167.3</ele>
        <time>2015-07-29T09:16:50Z</time>
      </trkpt>
      <trkpt lat="44.38683" lon="4.38007">
        <ele>167.5</ele>
        <time>2015-07-29T09:16:57Z</time>
      </trkpt>
      <trkpt lat="44.38678" lon="4.38011">
        <ele>167.2</ele>
        <time>2015-07-29T09:17:02Z</time>
      </trkpt>
      <trkpt lat="44.38674" lon="4.3801">
        <ele>167.1</ele>
        <time>2015-07-29T09:17:04Z</time>
      </trkpt>
      <trkpt lat="44.38669" lon="4.38008">
        <ele>167.3</ele>
        <time>2015-07-29T09:17:08Z</time>
      </trkpt>
      <trkpt lat="44.38665" lon="4.38005">
        <ele>167.6</ele>
        <time>2015-07-29T09:17:12Z</time>
      </trkpt>
      <trkpt lat="44.3866" lon="4.38001">
        <ele>167.7</ele>
        <time>2015-07-29T09:17:15Z</time>
      </trkpt>
      <trkpt lat="44.38656" lon="4.37995">
        <ele>167.9</ele>
        <time>2015-07-29T09:17:19Z</time>
      </trkpt>
      <trkpt lat="44.38656" lon="4.37988">
        <ele>167.8</ele>
        <time>2015-07-29T09:17:23Z</time>
      </trkpt>
      <trkpt lat="44.38659" lon="4.3798">
        <ele>167.8</ele>
        <time>2015-07-29T09:17:27Z</time>
      </trkpt>
      <trkpt lat="44.38665" lon="4.37975">
        <ele>167.5</ele>
        <time>2015-07-29T09:17:36Z</time>
      </trkpt>
    </trkseg>
  </trk>
</gpx>